<?xml version="1.0" encoding="utf-8"?>
<gpx xmlns:xsi="http://www.w3.org/2001/XMLSchema-instance" xmlns:xsd="http://www.w3.org/2001/XMLSchema" version="1.1" creator="Shapelink.com" xmlns="http://www.topografix.com/GPX/1/1" xmlns:gpxtpx="http://www.garmin.com/xmlschemas/TrackPointExtension/v1">
  <metadata>
    <name>Sykling 44.18 km, 2012-05-24</name>
    <desc></desc>
    <author><name>Mikael Blom</name></author> 
    <time>2012-05-24T18:08:24Z</time>
  </metadata>
  <trk>
    <name>Sykling 44.18 km, 2012-05-24</name>
    <trkseg>
      <trkpt lat="59.9780668" lon="17.7391868">
        <ele>70.3135</ele>
        <time>2012-05-24T18:08:24Z</time>
      </trkpt>
      <trkpt lat="59.9779983" lon="17.7391658">
        <ele>102.998</ele>
        <time>2012-05-24T18:08:28Z</time>
      </trkpt>
      <trkpt lat="59.9775799" lon="17.7390186">
        <ele>34.2642</ele>
        <time>2012-05-24T18:08:31Z</time>
      </trkpt>
      <trkpt lat="59.9771912" lon="17.7391511">
        <ele>29.9381</ele>
        <time>2012-05-24T18:08:36Z</time>
      </trkpt>
      <trkpt lat="59.9766221" lon="17.739393">
        <ele>32.8223</ele>
        <time>2012-05-24T18:08:43Z</time>
      </trkpt>
      <trkpt lat="59.9764541" lon="17.739477">
        <ele>39.5513</ele>
        <time>2012-05-24T18:08:45Z</time>
      </trkpt>
      <trkpt lat="59.9762279" lon="17.7399635">
        <ele>46.2806</ele>
        <time>2012-05-24T18:08:49Z</time>
      </trkpt>
      <trkpt lat="59.9761837" lon="17.7400944">
        <ele>49.6453</ele>
        <time>2012-05-24T18:08:50Z</time>
      </trkpt>
      <trkpt lat="59.9759191" lon="17.7410814">
        <ele>56.3745</ele>
        <time>2012-05-24T18:08:57Z</time>
      </trkpt>
      <trkpt lat="59.9757698" lon="17.7417407">
        <ele>52.0486</ele>
        <time>2012-05-24T18:09:02Z</time>
      </trkpt>
      <trkpt lat="59.9755483" lon="17.7425824">
        <ele>47.7225</ele>
        <time>2012-05-24T18:09:09Z</time>
      </trkpt>
      <trkpt lat="59.9753918" lon="17.7432104">
        <ele>40.5128</ele>
        <time>2012-05-24T18:09:14Z</time>
      </trkpt>
      <trkpt lat="59.9752192" lon="17.7441283">
        <ele>34.7449</ele>
        <time>2012-05-24T18:09:21Z</time>
      </trkpt>
      <trkpt lat="59.9751352" lon="17.744542">
        <ele>29.9381</ele>
        <time>2012-05-24T18:09:24Z</time>
      </trkpt>
      <trkpt lat="59.974881" lon="17.7452969">
        <ele>39.0707</ele>
        <time>2012-05-24T18:09:30Z</time>
      </trkpt>
      <trkpt lat="59.9746569" lon="17.7458775">
        <ele>38.5901</ele>
        <time>2012-05-24T18:09:35Z</time>
      </trkpt>
      <trkpt lat="59.9741807" lon="17.7466022">
        <ele>38.5901</ele>
        <time>2012-05-24T18:09:43Z</time>
      </trkpt>
      <trkpt lat="59.9737789" lon="17.7471313">
        <ele>38.5901</ele>
        <time>2012-05-24T18:09:49Z</time>
      </trkpt>
      <trkpt lat="59.9736752" lon="17.7472771">
        <ele>39.5513</ele>
        <time>2012-05-24T18:09:51Z</time>
      </trkpt>
      <trkpt lat="59.9733111" lon="17.7476423">
        <ele>39.5513</ele>
        <time>2012-05-24T18:09:56Z</time>
      </trkpt>
      <trkpt lat="59.9729567" lon="17.7479787">
        <ele>40.9934</ele>
        <time>2012-05-24T18:10:00Z</time>
      </trkpt>
      <trkpt lat="59.9726679" lon="17.748646">
        <ele>27.0543</ele>
        <time>2012-05-24T18:10:05Z</time>
      </trkpt>
      <trkpt lat="59.9723909" lon="17.7492233">
        <ele>19.3638</ele>
        <time>2012-05-24T18:10:10Z</time>
      </trkpt>
      <trkpt lat="59.9721895" lon="17.7497069">
        <ele>15.999</ele>
        <time>2012-05-24T18:10:14Z</time>
      </trkpt>
      <trkpt lat="59.9719253" lon="17.7504321">
        <ele>23.209</ele>
        <time>2012-05-24T18:10:20Z</time>
      </trkpt>
      <trkpt lat="59.9718542" lon="17.7505362">
        <ele>26.0929</ele>
        <time>2012-05-24T18:10:21Z</time>
      </trkpt>
      <trkpt lat="59.9716474" lon="17.750849">
        <ele>29.9381</ele>
        <time>2012-05-24T18:10:24Z</time>
      </trkpt>
      <trkpt lat="59.9714358" lon="17.7510795">
        <ele>35.7061</ele>
        <time>2012-05-24T18:10:27Z</time>
      </trkpt>
      <trkpt lat="59.9709675" lon="17.7515596">
        <ele>42.4354</ele>
        <time>2012-05-24T18:10:32Z</time>
      </trkpt>
      <trkpt lat="59.9705821" lon="17.7521099">
        <ele>49.1646</ele>
        <time>2012-05-24T18:10:37Z</time>
      </trkpt>
      <trkpt lat="59.9705172" lon="17.7522408">
        <ele>47.7225</ele>
        <time>2012-05-24T18:10:38Z</time>
      </trkpt>
      <trkpt lat="59.9702735" lon="17.7529991">
        <ele>45.7999</ele>
        <time>2012-05-24T18:10:43Z</time>
      </trkpt>
      <trkpt lat="59.96989" lon="17.7539994">
        <ele>40.9934</ele>
        <time>2012-05-24T18:10:50Z</time>
      </trkpt>
      <trkpt lat="59.9695056" lon="17.7548426">
        <ele>39.5513</ele>
        <time>2012-05-24T18:10:57Z</time>
      </trkpt>
      <trkpt lat="59.9691686" lon="17.7555831">
        <ele>38.5901</ele>
        <time>2012-05-24T18:11:03Z</time>
      </trkpt>
      <trkpt lat="59.9687884" lon="17.7563374">
        <ele>42.916</ele>
        <time>2012-05-24T18:11:10Z</time>
      </trkpt>
      <trkpt lat="59.9683852" lon="17.7569678">
        <ele>45.7999</ele>
        <time>2012-05-24T18:11:17Z</time>
      </trkpt>
      <trkpt lat="59.9679136" lon="17.7575856">
        <ele>49.1646</ele>
        <time>2012-05-24T18:11:24Z</time>
      </trkpt>
      <trkpt lat="59.9675093" lon="17.7579441">
        <ele>59.7391</ele>
        <time>2012-05-24T18:11:29Z</time>
      </trkpt>
      <trkpt lat="59.9669688" lon="17.7584197">
        <ele>53.0098</ele>
        <time>2012-05-24T18:11:35Z</time>
      </trkpt>
      <trkpt lat="59.9664966" lon="17.7588999">
        <ele>55.4131</ele>
        <time>2012-05-24T18:11:41Z</time>
      </trkpt>
      <trkpt lat="59.9661619" lon="17.7594154">
        <ele>62.1423</ele>
        <time>2012-05-24T18:11:46Z</time>
      </trkpt>
      <trkpt lat="59.9656793" lon="17.7602664">
        <ele>58.2971</ele>
        <time>2012-05-24T18:11:53Z</time>
      </trkpt>
      <trkpt lat="59.9653415" lon="17.760964">
        <ele>53.0098</ele>
        <time>2012-05-24T18:11:59Z</time>
      </trkpt>
      <trkpt lat="59.9651205" lon="17.7616556">
        <ele>36.6675</ele>
        <time>2012-05-24T18:12:04Z</time>
      </trkpt>
      <trkpt lat="59.9648027" lon="17.7625369">
        <ele>39.0707</ele>
        <time>2012-05-24T18:12:11Z</time>
      </trkpt>
      <trkpt lat="59.9645412" lon="17.7634459">
        <ele>30.4188</ele>
        <time>2012-05-24T18:12:18Z</time>
      </trkpt>
      <trkpt lat="59.9645166" lon="17.7635643">
        <ele>28.4962</ele>
        <time>2012-05-24T18:12:19Z</time>
      </trkpt>
      <trkpt lat="59.9643939" lon="17.7642373">
        <ele>36.6675</ele>
        <time>2012-05-24T18:12:26Z</time>
      </trkpt>
      <trkpt lat="59.9643866" lon="17.7643358">
        <ele>37.1481</ele>
        <time>2012-05-24T18:12:27Z</time>
      </trkpt>
      <trkpt lat="59.9642736" lon="17.7648934">
        <ele>39.5513</ele>
        <time>2012-05-24T18:12:32Z</time>
      </trkpt>
      <trkpt lat="59.9641876" lon="17.7654294">
        <ele>55.8938</ele>
        <time>2012-05-24T18:12:37Z</time>
      </trkpt>
      <trkpt lat="59.9641716" lon="17.7656371">
        <ele>60.2197</ele>
        <time>2012-05-24T18:12:39Z</time>
      </trkpt>
      <trkpt lat="59.9641235" lon="17.7663401">
        <ele>57.3358</ele>
        <time>2012-05-24T18:12:45Z</time>
      </trkpt>
      <trkpt lat="59.9641221" lon="17.7666669">
        <ele>53.4905</ele>
        <time>2012-05-24T18:12:48Z</time>
      </trkpt>
      <trkpt lat="59.9640657" lon="17.7672236">
        <ele>47.7225</ele>
        <time>2012-05-24T18:12:52Z</time>
      </trkpt>
      <trkpt lat="59.9639941" lon="17.7676329">
        <ele>50.6066</ele>
        <time>2012-05-24T18:12:55Z</time>
      </trkpt>
      <trkpt lat="59.9637377" lon="17.7685399">
        <ele>50.126</ele>
        <time>2012-05-24T18:13:02Z</time>
      </trkpt>
      <trkpt lat="59.9635533" lon="17.7692193">
        <ele>37.1481</ele>
        <time>2012-05-24T18:13:07Z</time>
      </trkpt>
      <trkpt lat="59.963473" lon="17.7697149">
        <ele>38.5901</ele>
        <time>2012-05-24T18:13:11Z</time>
      </trkpt>
      <trkpt lat="59.963432" lon="17.7700708">
        <ele>41.474</ele>
        <time>2012-05-24T18:13:14Z</time>
      </trkpt>
      <trkpt lat="59.9634875" lon="17.7707389">
        <ele>40.0321</ele>
        <time>2012-05-24T18:13:19Z</time>
      </trkpt>
      <trkpt lat="59.9636227" lon="17.7714558">
        <ele>32.3416</ele>
        <time>2012-05-24T18:13:24Z</time>
      </trkpt>
      <trkpt lat="59.9638673" lon="17.7726062">
        <ele>25.1317</ele>
        <time>2012-05-24T18:13:32Z</time>
      </trkpt>
      <trkpt lat="59.9638844" lon="17.7727531">
        <ele>26.0929</ele>
        <time>2012-05-24T18:13:33Z</time>
      </trkpt>
      <trkpt lat="59.9638603" lon="17.7734543">
        <ele>34.2642</ele>
        <time>2012-05-24T18:13:38Z</time>
      </trkpt>
      <trkpt lat="59.9637112" lon="17.7744071">
        <ele>35.7061</ele>
        <time>2012-05-24T18:13:45Z</time>
      </trkpt>
      <trkpt lat="59.9635434" lon="17.7754354">
        <ele>18.8831</ele>
        <time>2012-05-24T18:13:52Z</time>
      </trkpt>
      <trkpt lat="59.9633054" lon="17.7761609">
        <ele>5.42456</ele>
        <time>2012-05-24T18:13:58Z</time>
      </trkpt>
      <trkpt lat="59.9630758" lon="17.7769433">
        <ele>7.82788</ele>
        <time>2012-05-24T18:14:05Z</time>
      </trkpt>
      <trkpt lat="59.9630394" lon="17.7770601">
        <ele>10.7118</ele>
        <time>2012-05-24T18:14:06Z</time>
      </trkpt>
      <trkpt lat="59.9627535" lon="17.7776814">
        <ele>14.557</ele>
        <time>2012-05-24T18:14:12Z</time>
      </trkpt>
      <trkpt lat="59.9623349" lon="17.7785406">
        <ele>13.5958</ele>
        <time>2012-05-24T18:14:20Z</time>
      </trkpt>
      <trkpt lat="59.962043" lon="17.7792002">
        <ele>15.0377</ele>
        <time>2012-05-24T18:14:26Z</time>
      </trkpt>
      <trkpt lat="59.9617007" lon="17.7799441">
        <ele>14.0764</ele>
        <time>2012-05-24T18:14:33Z</time>
      </trkpt>
      <trkpt lat="59.9613496" lon="17.7806413">
        <ele>19.8444</ele>
        <time>2012-05-24T18:14:40Z</time>
      </trkpt>
      <trkpt lat="59.9609236" lon="17.7813937">
        <ele>28.4962</ele>
        <time>2012-05-24T18:14:48Z</time>
      </trkpt>
      <trkpt lat="59.9605555" lon="17.7821016">
        <ele>24.1703</ele>
        <time>2012-05-24T18:14:55Z</time>
      </trkpt>
      <trkpt lat="59.960353" lon="17.7827123">
        <ele>38.5901</ele>
        <time>2012-05-24T18:15:01Z</time>
      </trkpt>
      <trkpt lat="59.9600915" lon="17.7835166">
        <ele>37.6287</ele>
        <time>2012-05-24T18:15:08Z</time>
      </trkpt>
      <trkpt lat="59.9597999" lon="17.7842249">
        <ele>34.2642</ele>
        <time>2012-05-24T18:15:14Z</time>
      </trkpt>
      <trkpt lat="59.9594491" lon="17.7847544">
        <ele>41.9547</ele>
        <time>2012-05-24T18:15:20Z</time>
      </trkpt>
      <trkpt lat="59.9591236" lon="17.7851117">
        <ele>49.1646</ele>
        <time>2012-05-24T18:15:25Z</time>
      </trkpt>
      <trkpt lat="59.9585358" lon="17.7856649">
        <ele>39.0707</ele>
        <time>2012-05-24T18:15:33Z</time>
      </trkpt>
      <trkpt lat="59.9579523" lon="17.7863439">
        <ele>35.2255</ele>
        <time>2012-05-24T18:15:41Z</time>
      </trkpt>
      <trkpt lat="59.9578803" lon="17.7864362">
        <ele>36.6675</ele>
        <time>2012-05-24T18:15:42Z</time>
      </trkpt>
      <trkpt lat="59.9576485" lon="17.7870818">
        <ele>32.8223</ele>
        <time>2012-05-24T18:15:47Z</time>
      </trkpt>
      <trkpt lat="59.9576195" lon="17.7872213">
        <ele>32.8223</ele>
        <time>2012-05-24T18:15:48Z</time>
      </trkpt>
      <trkpt lat="59.9574162" lon="17.7880712">
        <ele>34.7449</ele>
        <time>2012-05-24T18:15:54Z</time>
      </trkpt>
      <trkpt lat="59.9572302" lon="17.7887006">
        <ele>33.3029</ele>
        <time>2012-05-24T18:15:59Z</time>
      </trkpt>
      <trkpt lat="59.9569507" lon="17.7892248">
        <ele>30.8995</ele>
        <time>2012-05-24T18:16:04Z</time>
      </trkpt>
      <trkpt lat="59.9567678" lon="17.7894498">
        <ele>32.3416</ele>
        <time>2012-05-24T18:16:07Z</time>
      </trkpt>
      <trkpt lat="59.9566073" lon="17.7897466">
        <ele>34.7449</ele>
        <time>2012-05-24T18:16:10Z</time>
      </trkpt>
      <trkpt lat="59.9565841" lon="17.7902887">
        <ele>29.9381</ele>
        <time>2012-05-24T18:16:14Z</time>
      </trkpt>
      <trkpt lat="59.9567279" lon="17.7911792">
        <ele>24.651</ele>
        <time>2012-05-24T18:16:21Z</time>
      </trkpt>
      <trkpt lat="59.9567103" lon="17.7917106">
        <ele>17.9218</ele>
        <time>2012-05-24T18:16:25Z</time>
      </trkpt>
      <trkpt lat="59.9565011" lon="17.7929098">
        <ele>26.5736</ele>
        <time>2012-05-24T18:16:35Z</time>
      </trkpt>
      <trkpt lat="59.9562629" lon="17.7940295">
        <ele>33.7834</ele>
        <time>2012-05-24T18:16:44Z</time>
      </trkpt>
      <trkpt lat="59.9559852" lon="17.7952353">
        <ele>34.2642</ele>
        <time>2012-05-24T18:16:53Z</time>
      </trkpt>
      <trkpt lat="59.9557836" lon="17.7963342">
        <ele>37.6287</ele>
        <time>2012-05-24T18:17:01Z</time>
      </trkpt>
      <trkpt lat="59.9555314" lon="17.7974083">
        <ele>41.9547</ele>
        <time>2012-05-24T18:17:09Z</time>
      </trkpt>
      <trkpt lat="59.9552548" lon="17.7983225">
        <ele>45.7999</ele>
        <time>2012-05-24T18:17:17Z</time>
      </trkpt>
      <trkpt lat="59.9550402" lon="17.7989291">
        <ele>37.1481</ele>
        <time>2012-05-24T18:17:23Z</time>
      </trkpt>
      <trkpt lat="59.9547764" lon="17.7994683">
        <ele>37.6287</ele>
        <time>2012-05-24T18:17:29Z</time>
      </trkpt>
      <trkpt lat="59.9544814" lon="17.8001457">
        <ele>34.7449</ele>
        <time>2012-05-24T18:17:35Z</time>
      </trkpt>
      <trkpt lat="59.954161" lon="17.8009398">
        <ele>32.3416</ele>
        <time>2012-05-24T18:17:42Z</time>
      </trkpt>
      <trkpt lat="59.9538535" lon="17.8016751">
        <ele>32.3416</ele>
        <time>2012-05-24T18:17:49Z</time>
      </trkpt>
      <trkpt lat="59.9537399" lon="17.8019675">
        <ele>30.8995</ele>
        <time>2012-05-24T18:17:52Z</time>
      </trkpt>
      <trkpt lat="59.9536884" lon="17.8021875">
        <ele>28.0155</ele>
        <time>2012-05-24T18:17:54Z</time>
      </trkpt>
      <trkpt lat="59.9535951" lon="17.8027443">
        <ele>18.8831</ele>
        <time>2012-05-24T18:18:00Z</time>
      </trkpt>
      <trkpt lat="59.9534516" lon="17.8033665">
        <ele>19.8444</ele>
        <time>2012-05-24T18:18:06Z</time>
      </trkpt>
      <trkpt lat="59.9531997" lon="17.8039289">
        <ele>22.2476</ele>
        <time>2012-05-24T18:18:12Z</time>
      </trkpt>
      <trkpt lat="59.9530536" lon="17.8042381">
        <ele>22.2476</ele>
        <time>2012-05-24T18:18:15Z</time>
      </trkpt>
      <trkpt lat="59.9528932" lon="17.8047727">
        <ele>22.2476</ele>
        <time>2012-05-24T18:18:19Z</time>
      </trkpt>
      <trkpt lat="59.9527497" lon="17.8057257">
        <ele>21.2864</ele>
        <time>2012-05-24T18:18:25Z</time>
      </trkpt>
      <trkpt lat="59.9526252" lon="17.8065053">
        <ele>21.767</ele>
        <time>2012-05-24T18:18:30Z</time>
      </trkpt>
      <trkpt lat="59.9523689" lon="17.8075496">
        <ele>22.2476</ele>
        <time>2012-05-24T18:18:37Z</time>
      </trkpt>
      <trkpt lat="59.9519569" lon="17.8090795">
        <ele>23.209</ele>
        <time>2012-05-24T18:18:47Z</time>
      </trkpt>
      <trkpt lat="59.9516246" lon="17.8103512">
        <ele>23.209</ele>
        <time>2012-05-24T18:18:56Z</time>
      </trkpt>
      <trkpt lat="59.9514414" lon="17.8112974">
        <ele>24.651</ele>
        <time>2012-05-24T18:19:03Z</time>
      </trkpt>
      <trkpt lat="59.9513504" lon="17.8122995">
        <ele>25.1317</ele>
        <time>2012-05-24T18:19:10Z</time>
      </trkpt>
      <trkpt lat="59.9513387" lon="17.8135457">
        <ele>23.6896</ele>
        <time>2012-05-24T18:19:18Z</time>
      </trkpt>
      <trkpt lat="59.9513294" lon="17.8149303">
        <ele>24.1703</ele>
        <time>2012-05-24T18:19:27Z</time>
      </trkpt>
      <trkpt lat="59.9512805" lon="17.816075">
        <ele>25.1317</ele>
        <time>2012-05-24T18:19:35Z</time>
      </trkpt>
      <trkpt lat="59.9511553" lon="17.8174454">
        <ele>26.5736</ele>
        <time>2012-05-24T18:19:45Z</time>
      </trkpt>
      <trkpt lat="59.9510533" lon="17.8185">
        <ele>25.6123</ele>
        <time>2012-05-24T18:19:53Z</time>
      </trkpt>
      <trkpt lat="59.9509883" lon="17.8194219">
        <ele>24.651</ele>
        <time>2012-05-24T18:20:00Z</time>
      </trkpt>
      <trkpt lat="59.9509421" lon="17.8206726">
        <ele>22.7283</ele>
        <time>2012-05-24T18:20:09Z</time>
      </trkpt>
      <trkpt lat="59.9508573" lon="17.8218286">
        <ele>27.5349</ele>
        <time>2012-05-24T18:20:17Z</time>
      </trkpt>
      <trkpt lat="59.9506991" lon="17.8233099">
        <ele>24.1703</ele>
        <time>2012-05-24T18:20:27Z</time>
      </trkpt>
      <trkpt lat="59.9505713" lon="17.8241694">
        <ele>25.6123</ele>
        <time>2012-05-24T18:20:33Z</time>
      </trkpt>
      <trkpt lat="59.9503678" lon="17.8251288">
        <ele>26.0929</ele>
        <time>2012-05-24T18:20:40Z</time>
      </trkpt>
      <trkpt lat="59.9501097" lon="17.8263582">
        <ele>30.4188</ele>
        <time>2012-05-24T18:20:49Z</time>
      </trkpt>
      <trkpt lat="59.9500346" lon="17.8271943">
        <ele>29.4575</ele>
        <time>2012-05-24T18:20:55Z</time>
      </trkpt>
      <trkpt lat="59.9500337" lon="17.8284401">
        <ele>29.4575</ele>
        <time>2012-05-24T18:21:04Z</time>
      </trkpt>
      <trkpt lat="59.9500124" lon="17.8294636">
        <ele>27.0543</ele>
        <time>2012-05-24T18:21:12Z</time>
      </trkpt>
      <trkpt lat="59.9500006" lon="17.8295772">
        <ele>26.5736</ele>
        <time>2012-05-24T18:21:13Z</time>
      </trkpt>
      <trkpt lat="59.9498491" lon="17.8297981">
        <ele>29.4575</ele>
        <time>2012-05-24T18:21:17Z</time>
      </trkpt>
      <trkpt lat="59.9497436" lon="17.829689">
        <ele>27.5349</ele>
        <time>2012-05-24T18:21:19Z</time>
      </trkpt>
      <trkpt lat="59.9493463" lon="17.8290916">
        <ele>22.7283</ele>
        <time>2012-05-24T18:21:26Z</time>
      </trkpt>
      <trkpt lat="59.9486667" lon="17.828297">
        <ele>21.767</ele>
        <time>2012-05-24T18:21:36Z</time>
      </trkpt>
      <trkpt lat="59.9481238" lon="17.8277294">
        <ele>21.2864</ele>
        <time>2012-05-24T18:21:44Z</time>
      </trkpt>
      <trkpt lat="59.947353" lon="17.8269198">
        <ele>22.7283</ele>
        <time>2012-05-24T18:21:55Z</time>
      </trkpt>
      <trkpt lat="59.946648" lon="17.826184">
        <ele>25.1317</ele>
        <time>2012-05-24T18:22:05Z</time>
      </trkpt>
      <trkpt lat="59.9459687" lon="17.8254829">
        <ele>27.0543</ele>
        <time>2012-05-24T18:22:15Z</time>
      </trkpt>
      <trkpt lat="59.9452617" lon="17.8247545">
        <ele>29.4575</ele>
        <time>2012-05-24T18:22:26Z</time>
      </trkpt>
      <trkpt lat="59.9447162" lon="17.8241671">
        <ele>17.4412</ele>
        <time>2012-05-24T18:22:35Z</time>
      </trkpt>
      <trkpt lat="59.944409" lon="17.8238367">
        <ele>13.5958</ele>
        <time>2012-05-24T18:22:40Z</time>
      </trkpt>
      <trkpt lat="59.9440221" lon="17.8233538">
        <ele>11.6732</ele>
        <time>2012-05-24T18:22:46Z</time>
      </trkpt>
      <trkpt lat="59.9435019" lon="17.8227362">
        <ele>10.2312</ele>
        <time>2012-05-24T18:22:53Z</time>
      </trkpt>
      <trkpt lat="59.9426851" lon="17.8217453">
        <ele>9.75061</ele>
        <time>2012-05-24T18:23:03Z</time>
      </trkpt>
      <trkpt lat="59.9419248" lon="17.8208097">
        <ele>11.1925</ele>
        <time>2012-05-24T18:23:12Z</time>
      </trkpt>
      <trkpt lat="59.9411783" lon="17.8198774">
        <ele>14.557</ele>
        <time>2012-05-24T18:23:21Z</time>
      </trkpt>
      <trkpt lat="59.9406883" lon="17.8192848">
        <ele>12.1538</ele>
        <time>2012-05-24T18:23:28Z</time>
      </trkpt>
      <trkpt lat="59.9402085" lon="17.8186931">
        <ele>11.1925</ele>
        <time>2012-05-24T18:23:36Z</time>
      </trkpt>
      <trkpt lat="59.9397982" lon="17.8181882">
        <ele>13.5958</ele>
        <time>2012-05-24T18:23:44Z</time>
      </trkpt>
      <trkpt lat="59.939717" lon="17.8180743">
        <ele>15.5184</ele>
        <time>2012-05-24T18:23:46Z</time>
      </trkpt>
      <trkpt lat="59.939471" lon="17.8179473">
        <ele>18.8831</ele>
        <time>2012-05-24T18:24:07Z</time>
      </trkpt>
      <trkpt lat="59.9393408" lon="17.8183938">
        <ele>18.8831</ele>
        <time>2012-05-24T18:24:11Z</time>
      </trkpt>
      <trkpt lat="59.9390155" lon="17.8190906">
        <ele>19.3638</ele>
        <time>2012-05-24T18:24:18Z</time>
      </trkpt>
      <trkpt lat="59.9385935" lon="17.8200136">
        <ele>18.8831</ele>
        <time>2012-05-24T18:24:27Z</time>
      </trkpt>
      <trkpt lat="59.9381148" lon="17.8210667">
        <ele>17.4412</ele>
        <time>2012-05-24T18:24:37Z</time>
      </trkpt>
      <trkpt lat="59.9377495" lon="17.8219604">
        <ele>16.9604</ele>
        <time>2012-05-24T18:24:45Z</time>
      </trkpt>
      <trkpt lat="59.9373744" lon="17.8229926">
        <ele>16.9604</ele>
        <time>2012-05-24T18:24:55Z</time>
      </trkpt>
      <trkpt lat="59.9370854" lon="17.8237448">
        <ele>17.4412</ele>
        <time>2012-05-24T18:25:03Z</time>
      </trkpt>
      <trkpt lat="59.9368105" lon="17.8243736">
        <ele>16.9604</ele>
        <time>2012-05-24T18:25:10Z</time>
      </trkpt>
      <trkpt lat="59.9365402" lon="17.8247253">
        <ele>15.5184</ele>
        <time>2012-05-24T18:25:15Z</time>
      </trkpt>
      <trkpt lat="59.9360895" lon="17.8249358">
        <ele>15.999</ele>
        <time>2012-05-24T18:25:22Z</time>
      </trkpt>
      <trkpt lat="59.935472" lon="17.8251697">
        <ele>15.0377</ele>
        <time>2012-05-24T18:25:31Z</time>
      </trkpt>
      <trkpt lat="59.9347224" lon="17.8254859">
        <ele>17.4412</ele>
        <time>2012-05-24T18:25:42Z</time>
      </trkpt>
      <trkpt lat="59.9340768" lon="17.8257787">
        <ele>20.325</ele>
        <time>2012-05-24T18:25:52Z</time>
      </trkpt>
      <trkpt lat="59.9335847" lon="17.8260391">
        <ele>20.325</ele>
        <time>2012-05-24T18:26:01Z</time>
      </trkpt>
      <trkpt lat="59.9332047" lon="17.826424">
        <ele>18.8831</ele>
        <time>2012-05-24T18:26:08Z</time>
      </trkpt>
      <trkpt lat="59.9328374" lon="17.8270182">
        <ele>14.557</ele>
        <time>2012-05-24T18:26:15Z</time>
      </trkpt>
      <trkpt lat="59.9324509" lon="17.8277108">
        <ele>9.75061</ele>
        <time>2012-05-24T18:26:23Z</time>
      </trkpt>
      <trkpt lat="59.9321174" lon="17.8284084">
        <ele>7.82788</ele>
        <time>2012-05-24T18:26:31Z</time>
      </trkpt>
      <trkpt lat="59.9319013" lon="17.8291037">
        <ele>8.78918</ele>
        <time>2012-05-24T18:26:38Z</time>
      </trkpt>
      <trkpt lat="59.9316775" lon="17.8299518">
        <ele>12.6344</ele>
        <time>2012-05-24T18:26:47Z</time>
      </trkpt>
      <trkpt lat="59.9314929" lon="17.8305731">
        <ele>16.4797</ele>
        <time>2012-05-24T18:26:55Z</time>
      </trkpt>
      <trkpt lat="59.9312021" lon="17.8312229">
        <ele>16.4797</ele>
        <time>2012-05-24T18:27:02Z</time>
      </trkpt>
      <trkpt lat="59.9308139" lon="17.831875">
        <ele>14.0764</ele>
        <time>2012-05-24T18:27:10Z</time>
      </trkpt>
      <trkpt lat="59.9304791" lon="17.8323703">
        <ele>14.0764</ele>
        <time>2012-05-24T18:27:17Z</time>
      </trkpt>
      <trkpt lat="59.93012" lon="17.8329204">
        <ele>12.6344</ele>
        <time>2012-05-24T18:27:24Z</time>
      </trkpt>
      <trkpt lat="59.9297076" lon="17.8335907">
        <ele>10.7118</ele>
        <time>2012-05-24T18:27:32Z</time>
      </trkpt>
      <trkpt lat="59.9293547" lon="17.8341859">
        <ele>11.6732</ele>
        <time>2012-05-24T18:27:40Z</time>
      </trkpt>
      <trkpt lat="59.9289733" lon="17.8346987">
        <ele>12.1538</ele>
        <time>2012-05-24T18:27:47Z</time>
      </trkpt>
      <trkpt lat="59.9285097" lon="17.8353369">
        <ele>13.5958</ele>
        <time>2012-05-24T18:27:55Z</time>
      </trkpt>
      <trkpt lat="59.9279645" lon="17.836145">
        <ele>15.999</ele>
        <time>2012-05-24T18:28:05Z</time>
      </trkpt>
      <trkpt lat="59.9276178" lon="17.8367091">
        <ele>16.9604</ele>
        <time>2012-05-24T18:28:12Z</time>
      </trkpt>
      <trkpt lat="59.9272925" lon="17.8371459">
        <ele>15.0377</ele>
        <time>2012-05-24T18:28:18Z</time>
      </trkpt>
      <trkpt lat="59.9269574" lon="17.8375786">
        <ele>15.5184</ele>
        <time>2012-05-24T18:28:24Z</time>
      </trkpt>
      <trkpt lat="59.926698" lon="17.8377887">
        <ele>15.999</ele>
        <time>2012-05-24T18:28:28Z</time>
      </trkpt>
      <trkpt lat="59.9266212" lon="17.8378561">
        <ele>15.5184</ele>
        <time>2012-05-24T18:28:29Z</time>
      </trkpt>
      <trkpt lat="59.9263585" lon="17.838245">
        <ele>16.4797</ele>
        <time>2012-05-24T18:28:33Z</time>
      </trkpt>
      <trkpt lat="59.9259525" lon="17.8391444">
        <ele>14.0764</ele>
        <time>2012-05-24T18:28:40Z</time>
      </trkpt>
      <trkpt lat="59.9256479" lon="17.8394369">
        <ele>13.1151</ele>
        <time>2012-05-24T18:28:44Z</time>
      </trkpt>
      <trkpt lat="59.9254829" lon="17.8394327">
        <ele>13.1151</ele>
        <time>2012-05-24T18:28:46Z</time>
      </trkpt>
      <trkpt lat="59.924862" lon="17.8393884">
        <ele>15.0377</ele>
        <time>2012-05-24T18:28:54Z</time>
      </trkpt>
      <trkpt lat="59.9241625" lon="17.8395274">
        <ele>11.6732</ele>
        <time>2012-05-24T18:29:03Z</time>
      </trkpt>
      <trkpt lat="59.9234772" lon="17.839816">
        <ele>7.82788</ele>
        <time>2012-05-24T18:29:12Z</time>
      </trkpt>
      <trkpt lat="59.9228349" lon="17.8401542">
        <ele>6.38586</ele>
        <time>2012-05-24T18:29:21Z</time>
      </trkpt>
      <trkpt lat="59.9221221" lon="17.8404412">
        <ele>5.90527</ele>
        <time>2012-05-24T18:29:31Z</time>
      </trkpt>
      <trkpt lat="59.9214487" lon="17.8406114">
        <ele>6.38586</ele>
        <time>2012-05-24T18:29:40Z</time>
      </trkpt>
      <trkpt lat="59.9208418" lon="17.8406795">
        <ele>7.34717</ele>
        <time>2012-05-24T18:29:48Z</time>
      </trkpt>
      <trkpt lat="59.9203612" lon="17.8407185">
        <ele>7.34717</ele>
        <time>2012-05-24T18:29:55Z</time>
      </trkpt>
      <trkpt lat="59.9199797" lon="17.8407195">
        <ele>7.82788</ele>
        <time>2012-05-24T18:30:01Z</time>
      </trkpt>
      <trkpt lat="59.9196477" lon="17.8408124">
        <ele>6.86646</ele>
        <time>2012-05-24T18:30:06Z</time>
      </trkpt>
      <trkpt lat="59.9192086" lon="17.8410696">
        <ele>3.50195</ele>
        <time>2012-05-24T18:30:12Z</time>
      </trkpt>
      <trkpt lat="59.9185237" lon="17.8415684">
        <ele>5.90527</ele>
        <time>2012-05-24T18:30:21Z</time>
      </trkpt>
      <trkpt lat="59.9180498" lon="17.8420307">
        <ele>5.42456</ele>
        <time>2012-05-24T18:30:28Z</time>
      </trkpt>
      <trkpt lat="59.9176046" lon="17.8424928">
        <ele>6.38586</ele>
        <time>2012-05-24T18:30:36Z</time>
      </trkpt>
      <trkpt lat="59.9171393" lon="17.8428826">
        <ele>4.46326</ele>
        <time>2012-05-24T18:30:44Z</time>
      </trkpt>
      <trkpt lat="59.91708" lon="17.8429309">
        <ele>3.98267</ele>
        <time>2012-05-24T18:30:45Z</time>
      </trkpt>
      <trkpt lat="59.9168299" lon="17.8429355">
        <ele>3.98267</ele>
        <time>2012-05-24T18:30:49Z</time>
      </trkpt>
      <trkpt lat="59.9167125" lon="17.8427859">
        <ele>3.50195</ele>
        <time>2012-05-24T18:30:51Z</time>
      </trkpt>
      <trkpt lat="59.9162113" lon="17.8420582">
        <ele>1.57935</ele>
        <time>2012-05-24T18:30:59Z</time>
      </trkpt>
      <trkpt lat="59.915812" lon="17.8417917">
        <ele>4.46326</ele>
        <time>2012-05-24T18:31:04Z</time>
      </trkpt>
      <trkpt lat="59.9152162" lon="17.8417188">
        <ele>8.30859</ele>
        <time>2012-05-24T18:31:11Z</time>
      </trkpt>
      <trkpt lat="59.914706" lon="17.8419457">
        <ele>7.34717</ele>
        <time>2012-05-24T18:31:17Z</time>
      </trkpt>
      <trkpt lat="59.9142703" lon="17.8424632">
        <ele>4.94385</ele>
        <time>2012-05-24T18:31:23Z</time>
      </trkpt>
      <trkpt lat="59.9138106" lon="17.8429449">
        <ele>0.618042</ele>
        <time>2012-05-24T18:31:29Z</time>
      </trkpt>
      <trkpt lat="59.9134145" lon="17.8431968">
        <ele>0</ele>
        <time>2012-05-24T18:31:34Z</time>
      </trkpt>
      <trkpt lat="59.912956" lon="17.8433116">
        <ele>0.618042</ele>
        <time>2012-05-24T18:31:40Z</time>
      </trkpt>
      <trkpt lat="59.9126467" lon="17.8434728">
        <ele>2.06006</ele>
        <time>2012-05-24T18:31:45Z</time>
      </trkpt>
      <trkpt lat="59.912253" lon="17.8439015">
        <ele>2.54065</ele>
        <time>2012-05-24T18:31:52Z</time>
      </trkpt>
      <trkpt lat="59.9119184" lon="17.8441937">
        <ele>1.09863</ele>
        <time>2012-05-24T18:31:57Z</time>
      </trkpt>
      <trkpt lat="59.9118499" lon="17.8442406">
        <ele>1.09863</ele>
        <time>2012-05-24T18:31:58Z</time>
      </trkpt>
      <trkpt lat="59.9113378" lon="17.8443663">
        <ele>3.02124</ele>
        <time>2012-05-24T18:32:05Z</time>
      </trkpt>
      <trkpt lat="59.911117" lon="17.8443435">
        <ele>3.02124</ele>
        <time>2012-05-24T18:32:08Z</time>
      </trkpt>
      <trkpt lat="59.910782" lon="17.8440712">
        <ele>3.50195</ele>
        <time>2012-05-24T18:32:13Z</time>
      </trkpt>
      <trkpt lat="59.9104501" lon="17.8438017">
        <ele>6.86646</ele>
        <time>2012-05-24T18:32:19Z</time>
      </trkpt>
      <trkpt lat="59.9101267" lon="17.8435466">
        <ele>8.78918</ele>
        <time>2012-05-24T18:32:25Z</time>
      </trkpt>
      <trkpt lat="59.9097486" lon="17.8431942">
        <ele>10.7118</ele>
        <time>2012-05-24T18:32:32Z</time>
      </trkpt>
      <trkpt lat="59.9097" lon="17.8431355">
        <ele>10.2312</ele>
        <time>2012-05-24T18:32:33Z</time>
      </trkpt>
      <trkpt lat="59.9095707" lon="17.8426577">
        <ele>13.1151</ele>
        <time>2012-05-24T18:32:37Z</time>
      </trkpt>
      <trkpt lat="59.9096029" lon="17.8423379">
        <ele>13.1151</ele>
        <time>2012-05-24T18:32:40Z</time>
      </trkpt>
      <trkpt lat="59.9096542" lon="17.8418961">
        <ele>13.1151</ele>
        <time>2012-05-24T18:32:43Z</time>
      </trkpt>
      <trkpt lat="59.9095961" lon="17.8410578">
        <ele>11.6732</ele>
        <time>2012-05-24T18:32:48Z</time>
      </trkpt>
      <trkpt lat="59.9094778" lon="17.8406336">
        <ele>10.7118</ele>
        <time>2012-05-24T18:32:51Z</time>
      </trkpt>
      <trkpt lat="59.909099" lon="17.8396249">
        <ele>13.1151</ele>
        <time>2012-05-24T18:32:59Z</time>
      </trkpt>
      <trkpt lat="59.9089082" lon="17.8391203">
        <ele>16.9604</ele>
        <time>2012-05-24T18:33:04Z</time>
      </trkpt>
      <trkpt lat="59.9088351" lon="17.8389496">
        <ele>18.8831</ele>
        <time>2012-05-24T18:33:06Z</time>
      </trkpt>
      <trkpt lat="59.9086362" lon="17.8386609">
        <ele>17.4412</ele>
        <time>2012-05-24T18:33:11Z</time>
      </trkpt>
      <trkpt lat="59.9084764" lon="17.8385967">
        <ele>14.557</ele>
        <time>2012-05-24T18:33:15Z</time>
      </trkpt>
      <trkpt lat="59.908307" lon="17.83859">
        <ele>4.46326</ele>
        <time>2012-05-24T18:33:19Z</time>
      </trkpt>
      <trkpt lat="59.9079818" lon="17.8388452">
        <ele>6.38586</ele>
        <time>2012-05-24T18:33:26Z</time>
      </trkpt>
      <trkpt lat="59.9076679" lon="17.8392758">
        <ele>15.5184</ele>
        <time>2012-05-24T18:33:34Z</time>
      </trkpt>
      <trkpt lat="59.9074021" lon="17.8395854">
        <ele>15.5184</ele>
        <time>2012-05-24T18:33:40Z</time>
      </trkpt>
      <trkpt lat="59.9070754" lon="17.8398223">
        <ele>11.6732</ele>
        <time>2012-05-24T18:33:45Z</time>
      </trkpt>
      <trkpt lat="59.9066245" lon="17.8401885">
        <ele>5.90527</ele>
        <time>2012-05-24T18:33:51Z</time>
      </trkpt>
      <trkpt lat="59.9062115" lon="17.8407216">
        <ele>7.34717</ele>
        <time>2012-05-24T18:33:56Z</time>
      </trkpt>
      <trkpt lat="59.9061577" lon="17.8408247">
        <ele>8.30859</ele>
        <time>2012-05-24T18:33:57Z</time>
      </trkpt>
      <trkpt lat="59.9060261" lon="17.8409825">
        <ele>10.2312</ele>
        <time>2012-05-24T18:33:59Z</time>
      </trkpt>
      <trkpt lat="59.9056764" lon="17.8412163">
        <ele>11.1925</ele>
        <time>2012-05-24T18:34:03Z</time>
      </trkpt>
      <trkpt lat="59.9052404" lon="17.8413555">
        <ele>10.7118</ele>
        <time>2012-05-24T18:34:09Z</time>
      </trkpt>
      <trkpt lat="59.9049456" lon="17.8414967">
        <ele>11.6732</ele>
        <time>2012-05-24T18:34:15Z</time>
      </trkpt>
      <trkpt lat="59.9046515" lon="17.8416818">
        <ele>13.1151</ele>
        <time>2012-05-24T18:34:22Z</time>
      </trkpt>
      <trkpt lat="59.904287" lon="17.8418733">
        <ele>9.75061</ele>
        <time>2012-05-24T18:34:29Z</time>
      </trkpt>
      <trkpt lat="59.9042245" lon="17.8419053">
        <ele>10.2312</ele>
        <time>2012-05-24T18:34:30Z</time>
      </trkpt>
      <trkpt lat="59.904049" lon="17.8419414">
        <ele>12.1538</ele>
        <time>2012-05-24T18:34:33Z</time>
      </trkpt>
      <trkpt lat="59.9037144" lon="17.8418538">
        <ele>13.5958</ele>
        <time>2012-05-24T18:34:39Z</time>
      </trkpt>
      <trkpt lat="59.9035309" lon="17.8416461">
        <ele>16.9604</ele>
        <time>2012-05-24T18:34:44Z</time>
      </trkpt>
      <trkpt lat="59.9034422" lon="17.8414905">
        <ele>15.0377</ele>
        <time>2012-05-24T18:34:47Z</time>
      </trkpt>
      <trkpt lat="59.9033473" lon="17.8413505">
        <ele>14.0764</ele>
        <time>2012-05-24T18:34:50Z</time>
      </trkpt>
      <trkpt lat="59.9031797" lon="17.8412812">
        <ele>18.4023</ele>
        <time>2012-05-24T18:34:54Z</time>
      </trkpt>
      <trkpt lat="59.9028589" lon="17.8412892">
        <ele>17.9218</ele>
        <time>2012-05-24T18:35:00Z</time>
      </trkpt>
      <trkpt lat="59.9024585" lon="17.8414269">
        <ele>20.8057</ele>
        <time>2012-05-24T18:35:07Z</time>
      </trkpt>
      <trkpt lat="59.9022321" lon="17.8415458">
        <ele>25.6123</ele>
        <time>2012-05-24T18:35:12Z</time>
      </trkpt>
      <trkpt lat="59.9021912" lon="17.8415573">
        <ele>26.5736</ele>
        <time>2012-05-24T18:35:13Z</time>
      </trkpt>
      <trkpt lat="59.9019541" lon="17.8415604">
        <ele>30.8995</ele>
        <time>2012-05-24T18:35:19Z</time>
      </trkpt>
      <trkpt lat="59.9018627" lon="17.8415552">
        <ele>32.8223</ele>
        <time>2012-05-24T18:35:21Z</time>
      </trkpt>
      <trkpt lat="59.9014242" lon="17.8414855">
        <ele>32.8223</ele>
        <time>2012-05-24T18:35:28Z</time>
      </trkpt>
      <trkpt lat="59.90103" lon="17.8414184">
        <ele>31.8607</ele>
        <time>2012-05-24T18:35:34Z</time>
      </trkpt>
      <trkpt lat="59.9006628" lon="17.8413804">
        <ele>36.1868</ele>
        <time>2012-05-24T18:35:40Z</time>
      </trkpt>
      <trkpt lat="59.9002908" lon="17.841366">
        <ele>39.5513</ele>
        <time>2012-05-24T18:35:47Z</time>
      </trkpt>
      <trkpt lat="59.9001918" lon="17.8413478">
        <ele>37.6287</ele>
        <time>2012-05-24T18:35:49Z</time>
      </trkpt>
      <trkpt lat="59.8998516" lon="17.8413935">
        <ele>27.0543</ele>
        <time>2012-05-24T18:35:57Z</time>
      </trkpt>
      <trkpt lat="59.8997479" lon="17.8414219">
        <ele>27.0543</ele>
        <time>2012-05-24T18:36:00Z</time>
      </trkpt>
      <trkpt lat="59.8994823" lon="17.84154">
        <ele>22.2476</ele>
        <time>2012-05-24T18:36:07Z</time>
      </trkpt>
      <trkpt lat="59.8992892" lon="17.8417467">
        <ele>23.209</ele>
        <time>2012-05-24T18:36:12Z</time>
      </trkpt>
      <trkpt lat="59.8989148" lon="17.8419875">
        <ele>25.6123</ele>
        <time>2012-05-24T18:36:20Z</time>
      </trkpt>
      <trkpt lat="59.8987399" lon="17.8420882">
        <ele>22.7283</ele>
        <time>2012-05-24T18:36:23Z</time>
      </trkpt>
      <trkpt lat="59.8982817" lon="17.8421979">
        <ele>21.2864</ele>
        <time>2012-05-24T18:36:29Z</time>
      </trkpt>
      <trkpt lat="59.8979807" lon="17.8421979">
        <ele>25.1317</ele>
        <time>2012-05-24T18:36:33Z</time>
      </trkpt>
      <trkpt lat="59.8975739" lon="17.8423228">
        <ele>20.8057</ele>
        <time>2012-05-24T18:36:38Z</time>
      </trkpt>
      <trkpt lat="59.8972075" lon="17.8425976">
        <ele>17.4412</ele>
        <time>2012-05-24T18:36:43Z</time>
      </trkpt>
      <trkpt lat="59.8970558" lon="17.842719">
        <ele>17.4412</ele>
        <time>2012-05-24T18:36:45Z</time>
      </trkpt>
      <trkpt lat="59.8965492" lon="17.8428004">
        <ele>20.325</ele>
        <time>2012-05-24T18:36:50Z</time>
      </trkpt>
      <trkpt lat="59.8958896" lon="17.8427204">
        <ele>25.1317</ele>
        <time>2012-05-24T18:36:56Z</time>
      </trkpt>
      <trkpt lat="59.8954914" lon="17.842903">
        <ele>22.7283</ele>
        <time>2012-05-24T18:37:00Z</time>
      </trkpt>
      <trkpt lat="59.8949231" lon="17.8431081">
        <ele>24.651</ele>
        <time>2012-05-24T18:37:06Z</time>
      </trkpt>
      <trkpt lat="59.894274" lon="17.8430537">
        <ele>29.9381</ele>
        <time>2012-05-24T18:37:13Z</time>
      </trkpt>
      <trkpt lat="59.8937453" lon="17.8430271">
        <ele>31.8607</ele>
        <time>2012-05-24T18:37:19Z</time>
      </trkpt>
      <trkpt lat="59.8933262" lon="17.8428828">
        <ele>30.4188</ele>
        <time>2012-05-24T18:37:24Z</time>
      </trkpt>
      <trkpt lat="59.8927196" lon="17.8426282">
        <ele>30.4188</ele>
        <time>2012-05-24T18:37:32Z</time>
      </trkpt>
      <trkpt lat="59.8921906" lon="17.8424132">
        <ele>30.4188</ele>
        <time>2012-05-24T18:37:40Z</time>
      </trkpt>
      <trkpt lat="59.8918069" lon="17.8422664">
        <ele>31.8607</ele>
        <time>2012-05-24T18:37:46Z</time>
      </trkpt>
      <trkpt lat="59.8914453" lon="17.8421635">
        <ele>31.3801</ele>
        <time>2012-05-24T18:37:52Z</time>
      </trkpt>
      <trkpt lat="59.891023" lon="17.8418773">
        <ele>32.3416</ele>
        <time>2012-05-24T18:37:59Z</time>
      </trkpt>
      <trkpt lat="59.8907169" lon="17.8415259">
        <ele>33.7834</ele>
        <time>2012-05-24T18:38:04Z</time>
      </trkpt>
      <trkpt lat="59.8903437" lon="17.8410035">
        <ele>34.7449</ele>
        <time>2012-05-24T18:38:10Z</time>
      </trkpt>
      <trkpt lat="59.8900621" lon="17.8408611">
        <ele>31.3801</ele>
        <time>2012-05-24T18:38:14Z</time>
      </trkpt>
      <trkpt lat="59.8899472" lon="17.8410678">
        <ele>28.9769</ele>
        <time>2012-05-24T18:38:16Z</time>
      </trkpt>
      <trkpt lat="59.889874" lon="17.8414402">
        <ele>25.6123</ele>
        <time>2012-05-24T18:38:19Z</time>
      </trkpt>
      <trkpt lat="59.8898389" lon="17.8417095">
        <ele>24.651</ele>
        <time>2012-05-24T18:38:21Z</time>
      </trkpt>
      <trkpt lat="59.8898156" lon="17.8424569">
        <ele>22.7283</ele>
        <time>2012-05-24T18:38:26Z</time>
      </trkpt>
      <trkpt lat="59.8898072" lon="17.8426037">
        <ele>22.7283</ele>
        <time>2012-05-24T18:38:27Z</time>
      </trkpt>
      <trkpt lat="59.8897477" lon="17.8430521">
        <ele>22.2476</ele>
        <time>2012-05-24T18:38:30Z</time>
      </trkpt>
      <trkpt lat="59.8894914" lon="17.8433956">
        <ele>20.8057</ele>
        <time>2012-05-24T18:38:34Z</time>
      </trkpt>
      <trkpt lat="59.8892101" lon="17.843262">
        <ele>22.2476</ele>
        <time>2012-05-24T18:38:37Z</time>
      </trkpt>
      <trkpt lat="59.8887108" lon="17.8430651">
        <ele>26.5736</ele>
        <time>2012-05-24T18:38:43Z</time>
      </trkpt>
      <trkpt lat="59.8885262" lon="17.8430205">
        <ele>25.6123</ele>
        <time>2012-05-24T18:38:45Z</time>
      </trkpt>
      <trkpt lat="59.8879918" lon="17.8426513">
        <ele>22.7283</ele>
        <time>2012-05-24T18:38:51Z</time>
      </trkpt>
      <trkpt lat="59.8875555" lon="17.8421067">
        <ele>21.767</ele>
        <time>2012-05-24T18:38:57Z</time>
      </trkpt>
      <trkpt lat="59.8874379" lon="17.8418681">
        <ele>22.7283</ele>
        <time>2012-05-24T18:38:59Z</time>
      </trkpt>
      <trkpt lat="59.8872538" lon="17.8414012">
        <ele>21.767</ele>
        <time>2012-05-24T18:39:03Z</time>
      </trkpt>
      <trkpt lat="59.8869739" lon="17.8410697">
        <ele>20.8057</ele>
        <time>2012-05-24T18:39:07Z</time>
      </trkpt>
      <trkpt lat="59.886714" lon="17.8410491">
        <ele>19.8444</ele>
        <time>2012-05-24T18:39:10Z</time>
      </trkpt>
      <trkpt lat="59.8866271" lon="17.8410816">
        <ele>19.3638</ele>
        <time>2012-05-24T18:39:11Z</time>
      </trkpt>
      <trkpt lat="59.8859864" lon="17.8413313">
        <ele>17.9218</ele>
        <time>2012-05-24T18:39:19Z</time>
      </trkpt>
      <trkpt lat="59.8854948" lon="17.8413951">
        <ele>19.8444</ele>
        <time>2012-05-24T18:39:25Z</time>
      </trkpt>
      <trkpt lat="59.8850872" lon="17.841436">
        <ele>21.2864</ele>
        <time>2012-05-24T18:39:30Z</time>
      </trkpt>
      <trkpt lat="59.8845599" lon="17.8412457">
        <ele>21.2864</ele>
        <time>2012-05-24T18:39:36Z</time>
      </trkpt>
      <trkpt lat="59.8841139" lon="17.8407925">
        <ele>20.8057</ele>
        <time>2012-05-24T18:39:42Z</time>
      </trkpt>
      <trkpt lat="59.8836004" lon="17.8401195">
        <ele>21.767</ele>
        <time>2012-05-24T18:39:50Z</time>
      </trkpt>
      <trkpt lat="59.8832524" lon="17.8396416">
        <ele>23.6896</ele>
        <time>2012-05-24T18:39:57Z</time>
      </trkpt>
      <trkpt lat="59.8830038" lon="17.8393199">
        <ele>26.0929</ele>
        <time>2012-05-24T18:40:03Z</time>
      </trkpt>
      <trkpt lat="59.8828321" lon="17.8391306">
        <ele>27.0543</ele>
        <time>2012-05-24T18:40:07Z</time>
      </trkpt>
      <trkpt lat="59.8827427" lon="17.8390628">
        <ele>26.0929</ele>
        <time>2012-05-24T18:40:09Z</time>
      </trkpt>
      <trkpt lat="59.8823908" lon="17.8389536">
        <ele>23.209</ele>
        <time>2012-05-24T18:40:15Z</time>
      </trkpt>
      <trkpt lat="59.8822322" lon="17.8388967">
        <ele>23.209</ele>
        <time>2012-05-24T18:40:17Z</time>
      </trkpt>
      <trkpt lat="59.8818315" lon="17.8384793">
        <ele>24.1703</ele>
        <time>2012-05-24T18:40:22Z</time>
      </trkpt>
      <trkpt lat="59.8811547" lon="17.8374779">
        <ele>28.4962</ele>
        <time>2012-05-24T18:40:31Z</time>
      </trkpt>
      <trkpt lat="59.8806989" lon="17.8366884">
        <ele>25.6123</ele>
        <time>2012-05-24T18:40:38Z</time>
      </trkpt>
      <trkpt lat="59.8803235" lon="17.8361838">
        <ele>21.767</ele>
        <time>2012-05-24T18:40:43Z</time>
      </trkpt>
      <trkpt lat="59.880007" lon="17.8358886">
        <ele>20.8057</ele>
        <time>2012-05-24T18:40:47Z</time>
      </trkpt>
      <trkpt lat="59.8796232" lon="17.8357782">
        <ele>20.325</ele>
        <time>2012-05-24T18:40:52Z</time>
      </trkpt>
      <trkpt lat="59.8791157" lon="17.8357131">
        <ele>23.6896</ele>
        <time>2012-05-24T18:40:58Z</time>
      </trkpt>
      <trkpt lat="59.8785846" lon="17.8354492">
        <ele>27.5349</ele>
        <time>2012-05-24T18:41:05Z</time>
      </trkpt>
      <trkpt lat="59.8780987" lon="17.8350146">
        <ele>29.4575</ele>
        <time>2012-05-24T18:41:11Z</time>
      </trkpt>
      <trkpt lat="59.8777444" lon="17.8346235">
        <ele>28.9769</ele>
        <time>2012-05-24T18:41:16Z</time>
      </trkpt>
      <trkpt lat="59.8772699" lon="17.8340194">
        <ele>28.4962</ele>
        <time>2012-05-24T18:41:23Z</time>
      </trkpt>
      <trkpt lat="59.8769186" lon="17.8336648">
        <ele>28.4962</ele>
        <time>2012-05-24T18:41:28Z</time>
      </trkpt>
      <trkpt lat="59.8765466" lon="17.8334322">
        <ele>28.4962</ele>
        <time>2012-05-24T18:41:34Z</time>
      </trkpt>
      <trkpt lat="59.8761452" lon="17.833195">
        <ele>25.1317</ele>
        <time>2012-05-24T18:41:40Z</time>
      </trkpt>
      <trkpt lat="59.875635" lon="17.8326769">
        <ele>26.5736</ele>
        <time>2012-05-24T18:41:47Z</time>
      </trkpt>
      <trkpt lat="59.8752617" lon="17.8324167">
        <ele>24.651</ele>
        <time>2012-05-24T18:41:52Z</time>
      </trkpt>
      <trkpt lat="59.8747661" lon="17.8322857">
        <ele>23.6896</ele>
        <time>2012-05-24T18:41:58Z</time>
      </trkpt>
      <trkpt lat="59.8744333" lon="17.8321722">
        <ele>24.1703</ele>
        <time>2012-05-24T18:42:02Z</time>
      </trkpt>
      <trkpt lat="59.8739589" lon="17.8316886">
        <ele>24.1703</ele>
        <time>2012-05-24T18:42:09Z</time>
      </trkpt>
      <trkpt lat="59.8734185" lon="17.8310434">
        <ele>23.209</ele>
        <time>2012-05-24T18:42:17Z</time>
      </trkpt>
      <trkpt lat="59.8729225" lon="17.8306845">
        <ele>21.767</ele>
        <time>2012-05-24T18:42:23Z</time>
      </trkpt>
      <trkpt lat="59.8723753" lon="17.8303661">
        <ele>20.325</ele>
        <time>2012-05-24T18:42:29Z</time>
      </trkpt>
      <trkpt lat="59.8717727" lon="17.8298051">
        <ele>18.8831</ele>
        <time>2012-05-24T18:42:35Z</time>
      </trkpt>
      <trkpt lat="59.8710816" lon="17.8291534">
        <ele>16.4797</ele>
        <time>2012-05-24T18:42:42Z</time>
      </trkpt>
      <trkpt lat="59.870299" lon="17.8283962">
        <ele>16.4797</ele>
        <time>2012-05-24T18:42:51Z</time>
      </trkpt>
      <trkpt lat="59.8698038" lon="17.827861">
        <ele>18.4023</ele>
        <time>2012-05-24T18:42:58Z</time>
      </trkpt>
      <trkpt lat="59.8695382" lon="17.8274378">
        <ele>19.3638</ele>
        <time>2012-05-24T18:43:03Z</time>
      </trkpt>
      <trkpt lat="59.8691418" lon="17.826739">
        <ele>22.2476</ele>
        <time>2012-05-24T18:43:11Z</time>
      </trkpt>
      <trkpt lat="59.8686897" lon="17.8259169">
        <ele>23.6896</ele>
        <time>2012-05-24T18:43:20Z</time>
      </trkpt>
      <trkpt lat="59.8685366" lon="17.825679">
        <ele>23.209</ele>
        <time>2012-05-24T18:43:23Z</time>
      </trkpt>
      <trkpt lat="59.8682254" lon="17.8255406">
        <ele>19.8444</ele>
        <time>2012-05-24T18:43:28Z</time>
      </trkpt>
      <trkpt lat="59.8679383" lon="17.8256791">
        <ele>16.4797</ele>
        <time>2012-05-24T18:43:32Z</time>
      </trkpt>
      <trkpt lat="59.867365" lon="17.8261251">
        <ele>14.557</ele>
        <time>2012-05-24T18:43:39Z</time>
      </trkpt>
      <trkpt lat="59.8667185" lon="17.8265679">
        <ele>15.0377</ele>
        <time>2012-05-24T18:43:46Z</time>
      </trkpt>
      <trkpt lat="59.866175" lon="17.8267132">
        <ele>17.9218</ele>
        <time>2012-05-24T18:43:52Z</time>
      </trkpt>
      <trkpt lat="59.8656471" lon="17.8266196">
        <ele>17.4412</ele>
        <time>2012-05-24T18:43:58Z</time>
      </trkpt>
      <trkpt lat="59.8652979" lon="17.8265473">
        <ele>17.4412</ele>
        <time>2012-05-24T18:44:02Z</time>
      </trkpt>
      <trkpt lat="59.8650125" lon="17.8263055">
        <ele>18.4023</ele>
        <time>2012-05-24T18:44:06Z</time>
      </trkpt>
      <trkpt lat="59.8649535" lon="17.8261992">
        <ele>18.8831</ele>
        <time>2012-05-24T18:44:07Z</time>
      </trkpt>
      <trkpt lat="59.8645802" lon="17.8254226">
        <ele>18.8831</ele>
        <time>2012-05-24T18:44:13Z</time>
      </trkpt>
      <trkpt lat="59.8640866" lon="17.8243461">
        <ele>17.4412</ele>
        <time>2012-05-24T18:44:20Z</time>
      </trkpt>
      <trkpt lat="59.8634842" lon="17.8229444">
        <ele>17.9218</ele>
        <time>2012-05-24T18:44:29Z</time>
      </trkpt>
      <trkpt lat="59.8631712" lon="17.8220961">
        <ele>17.9218</ele>
        <time>2012-05-24T18:44:35Z</time>
      </trkpt>
      <trkpt lat="59.8629397" lon="17.8213879">
        <ele>19.3638</ele>
        <time>2012-05-24T18:44:41Z</time>
      </trkpt>
      <trkpt lat="59.862805" lon="17.8209077">
        <ele>19.3638</ele>
        <time>2012-05-24T18:44:46Z</time>
      </trkpt>
      <trkpt lat="59.8627227" lon="17.8205549">
        <ele>16.9604</ele>
        <time>2012-05-24T18:44:51Z</time>
      </trkpt>
      <trkpt lat="59.8626721" lon="17.8202469">
        <ele>13.1151</ele>
        <time>2012-05-24T18:44:55Z</time>
      </trkpt>
      <trkpt lat="59.8626351" lon="17.8199448">
        <ele>12.1538</ele>
        <time>2012-05-24T18:44:59Z</time>
      </trkpt>
      <trkpt lat="59.86251" lon="17.819321">
        <ele>19.8444</ele>
        <time>2012-05-24T18:45:06Z</time>
      </trkpt>
      <trkpt lat="59.8624258" lon="17.8190895">
        <ele>18.4023</ele>
        <time>2012-05-24T18:45:09Z</time>
      </trkpt>
      <trkpt lat="59.8622031" lon="17.8188176">
        <ele>22.2476</ele>
        <time>2012-05-24T18:45:14Z</time>
      </trkpt>
      <trkpt lat="59.8618596" lon="17.8186507">
        <ele>27.5349</ele>
        <time>2012-05-24T18:45:21Z</time>
      </trkpt>
      <trkpt lat="59.8615359" lon="17.8184457">
        <ele>28.0155</ele>
        <time>2012-05-24T18:45:27Z</time>
      </trkpt>
      <trkpt lat="59.8612629" lon="17.8182343">
        <ele>28.4962</ele>
        <time>2012-05-24T18:45:31Z</time>
      </trkpt>
      <trkpt lat="59.8608534" lon="17.8178037">
        <ele>28.9769</ele>
        <time>2012-05-24T18:45:37Z</time>
      </trkpt>
      <trkpt lat="59.8604219" lon="17.8171843">
        <ele>27.0543</ele>
        <time>2012-05-24T18:45:43Z</time>
      </trkpt>
      <trkpt lat="59.859787" lon="17.8164264">
        <ele>25.1317</ele>
        <time>2012-05-24T18:45:51Z</time>
      </trkpt>
      <trkpt lat="59.8591276" lon="17.8158696">
        <ele>23.209</ele>
        <time>2012-05-24T18:45:59Z</time>
      </trkpt>
      <trkpt lat="59.8585926" lon="17.8154364">
        <ele>22.7283</ele>
        <time>2012-05-24T18:46:06Z</time>
      </trkpt>
      <trkpt lat="59.8581983" lon="17.8151376">
        <ele>23.209</ele>
        <time>2012-05-24T18:46:12Z</time>
      </trkpt>
      <trkpt lat="59.8579159" lon="17.8149846">
        <ele>22.2476</ele>
        <time>2012-05-24T18:46:16Z</time>
      </trkpt>
      <trkpt lat="59.8577246" lon="17.8146164">
        <ele>21.2864</ele>
        <time>2012-05-24T18:46:20Z</time>
      </trkpt>
      <trkpt lat="59.8577617" lon="17.8143477">
        <ele>20.8057</ele>
        <time>2012-05-24T18:46:22Z</time>
      </trkpt>
      <trkpt lat="59.8579194" lon="17.8133588">
        <ele>20.325</ele>
        <time>2012-05-24T18:46:29Z</time>
      </trkpt>
      <trkpt lat="59.8580004" lon="17.8122091">
        <ele>19.3638</ele>
        <time>2012-05-24T18:46:36Z</time>
      </trkpt>
      <trkpt lat="59.8579709" lon="17.8108572">
        <ele>19.3638</ele>
        <time>2012-05-24T18:46:44Z</time>
      </trkpt>
      <trkpt lat="59.8578381" lon="17.8096887">
        <ele>18.4023</ele>
        <time>2012-05-24T18:46:51Z</time>
      </trkpt>
      <trkpt lat="59.8576024" lon="17.808562">
        <ele>18.8831</ele>
        <time>2012-05-24T18:46:58Z</time>
      </trkpt>
      <trkpt lat="59.8573243" lon="17.8075243">
        <ele>18.8831</ele>
        <time>2012-05-24T18:47:05Z</time>
      </trkpt>
      <trkpt lat="59.8568516" lon="17.8059533">
        <ele>18.4023</ele>
        <time>2012-05-24T18:47:16Z</time>
      </trkpt>
      <trkpt lat="59.8564521" lon="17.8046309">
        <ele>19.3638</ele>
        <time>2012-05-24T18:47:26Z</time>
      </trkpt>
      <trkpt lat="59.8562232" lon="17.803847">
        <ele>20.8057</ele>
        <time>2012-05-24T18:47:33Z</time>
      </trkpt>
      <trkpt lat="59.8561915" lon="17.8037386">
        <ele>21.2864</ele>
        <time>2012-05-24T18:47:34Z</time>
      </trkpt>
      <trkpt lat="59.8561365" lon="17.803403">
        <ele>21.2864</ele>
        <time>2012-05-24T18:47:37Z</time>
      </trkpt>
      <trkpt lat="59.8560025" lon="17.8029378">
        <ele>21.767</ele>
        <time>2012-05-24T18:47:42Z</time>
      </trkpt>
      <trkpt lat="59.8557581" lon="17.8022317">
        <ele>21.767</ele>
        <time>2012-05-24T18:47:50Z</time>
      </trkpt>
      <trkpt lat="59.85563" lon="17.8016786">
        <ele>24.1703</ele>
        <time>2012-05-24T18:47:56Z</time>
      </trkpt>
      <trkpt lat="59.8554926" lon="17.8012378">
        <ele>28.9769</ele>
        <time>2012-05-24T18:48:02Z</time>
      </trkpt>
      <trkpt lat="59.8554675" lon="17.8010866">
        <ele>29.4575</ele>
        <time>2012-05-24T18:48:04Z</time>
      </trkpt>
      <trkpt lat="59.8553383" lon="17.8005228">
        <ele>27.0543</ele>
        <time>2012-05-24T18:48:11Z</time>
      </trkpt>
      <trkpt lat="59.8551509" lon="17.7999127">
        <ele>30.8995</ele>
        <time>2012-05-24T18:48:18Z</time>
      </trkpt>
      <trkpt lat="59.854968" lon="17.7992998">
        <ele>32.8223</ele>
        <time>2012-05-24T18:48:24Z</time>
      </trkpt>
      <trkpt lat="59.8546846" lon="17.7983422">
        <ele>34.2642</ele>
        <time>2012-05-24T18:48:32Z</time>
      </trkpt>
      <trkpt lat="59.8544355" lon="17.7973223">
        <ele>32.8223</ele>
        <time>2012-05-24T18:48:40Z</time>
      </trkpt>
      <trkpt lat="59.854378" lon="17.7970611">
        <ele>32.3416</ele>
        <time>2012-05-24T18:48:42Z</time>
      </trkpt>
      <trkpt lat="59.8541169" lon="17.7962181">
        <ele>34.7449</ele>
        <time>2012-05-24T18:48:49Z</time>
      </trkpt>
      <trkpt lat="59.8538393" lon="17.7952568">
        <ele>35.2255</ele>
        <time>2012-05-24T18:48:57Z</time>
      </trkpt>
      <trkpt lat="59.8536005" lon="17.7943753">
        <ele>32.3416</ele>
        <time>2012-05-24T18:49:04Z</time>
      </trkpt>
      <trkpt lat="59.8533518" lon="17.7935983">
        <ele>31.3801</ele>
        <time>2012-05-24T18:49:10Z</time>
      </trkpt>
      <trkpt lat="59.8530028" lon="17.7925472">
        <ele>31.3801</ele>
        <time>2012-05-24T18:49:18Z</time>
      </trkpt>
      <trkpt lat="59.8526898" lon="17.7916567">
        <ele>30.4188</ele>
        <time>2012-05-24T18:49:25Z</time>
      </trkpt>
      <trkpt lat="59.8523106" lon="17.7906725">
        <ele>29.9381</ele>
        <time>2012-05-24T18:49:33Z</time>
      </trkpt>
      <trkpt lat="59.8519325" lon="17.7897472">
        <ele>30.8995</ele>
        <time>2012-05-24T18:49:41Z</time>
      </trkpt>
      <trkpt lat="59.8516191" lon="17.7889712">
        <ele>32.3416</ele>
        <time>2012-05-24T18:49:48Z</time>
      </trkpt>
      <trkpt lat="59.8512571" lon="17.7880895">
        <ele>32.8223</ele>
        <time>2012-05-24T18:49:56Z</time>
      </trkpt>
      <trkpt lat="59.8509087" lon="17.787259">
        <ele>32.8223</ele>
        <time>2012-05-24T18:50:03Z</time>
      </trkpt>
      <trkpt lat="59.85048" lon="17.7861886">
        <ele>31.3801</ele>
        <time>2012-05-24T18:50:11Z</time>
      </trkpt>
      <trkpt lat="59.8500779" lon="17.7851275">
        <ele>27.5349</ele>
        <time>2012-05-24T18:50:18Z</time>
      </trkpt>
      <trkpt lat="59.8497983" lon="17.7840414">
        <ele>23.209</ele>
        <time>2012-05-24T18:50:24Z</time>
      </trkpt>
      <trkpt lat="59.8496085" lon="17.7830806">
        <ele>20.8057</ele>
        <time>2012-05-24T18:50:29Z</time>
      </trkpt>
      <trkpt lat="59.8493283" lon="17.7817342">
        <ele>18.8831</ele>
        <time>2012-05-24T18:50:36Z</time>
      </trkpt>
      <trkpt lat="59.8491232" lon="17.7806908">
        <ele>18.8831</ele>
        <time>2012-05-24T18:50:42Z</time>
      </trkpt>
      <trkpt lat="59.8489611" lon="17.7797136">
        <ele>19.3638</ele>
        <time>2012-05-24T18:50:48Z</time>
      </trkpt>
      <trkpt lat="59.848843" lon="17.7785232">
        <ele>21.767</ele>
        <time>2012-05-24T18:50:55Z</time>
      </trkpt>
      <trkpt lat="59.8488364" lon="17.7776361">
        <ele>21.767</ele>
        <time>2012-05-24T18:51:00Z</time>
      </trkpt>
      <trkpt lat="59.848769" lon="17.7767221">
        <ele>22.7283</ele>
        <time>2012-05-24T18:51:05Z</time>
      </trkpt>
      <trkpt lat="59.8486624" lon="17.7750058">
        <ele>19.8444</ele>
        <time>2012-05-24T18:51:14Z</time>
      </trkpt>
      <trkpt lat="59.8485188" lon="17.7737424">
        <ele>17.9218</ele>
        <time>2012-05-24T18:51:20Z</time>
      </trkpt>
      <trkpt lat="59.8483254" lon="17.7722215">
        <ele>14.0764</ele>
        <time>2012-05-24T18:51:27Z</time>
      </trkpt>
      <trkpt lat="59.8480498" lon="17.7704805">
        <ele>12.1538</ele>
        <time>2012-05-24T18:51:35Z</time>
      </trkpt>
      <trkpt lat="59.8480265" lon="17.7702666">
        <ele>12.1538</ele>
        <time>2012-05-24T18:51:36Z</time>
      </trkpt>
      <trkpt lat="59.8478364" lon="17.7695072">
        <ele>12.6344</ele>
        <time>2012-05-24T18:51:40Z</time>
      </trkpt>
      <trkpt lat="59.8475852" lon="17.7679281">
        <ele>12.6344</ele>
        <time>2012-05-24T18:51:48Z</time>
      </trkpt>
      <trkpt lat="59.8473785" lon="17.7666748">
        <ele>13.1151</ele>
        <time>2012-05-24T18:51:55Z</time>
      </trkpt>
      <trkpt lat="59.8471959" lon="17.7655362">
        <ele>12.6344</ele>
        <time>2012-05-24T18:52:02Z</time>
      </trkpt>
      <trkpt lat="59.8472816" lon="17.7649254">
        <ele>12.1538</ele>
        <time>2012-05-24T18:52:06Z</time>
      </trkpt>
      <trkpt lat="59.8473451" lon="17.7648302">
        <ele>11.6732</ele>
        <time>2012-05-24T18:52:07Z</time>
      </trkpt>
      <trkpt lat="59.8478629" lon="17.7637886">
        <ele>11.6732</ele>
        <time>2012-05-24T18:52:16Z</time>
      </trkpt>
      <trkpt lat="59.8482479" lon="17.7629748">
        <ele>11.6732</ele>
        <time>2012-05-24T18:52:23Z</time>
      </trkpt>
      <trkpt lat="59.848365" lon="17.7624165">
        <ele>12.1538</ele>
        <time>2012-05-24T18:52:27Z</time>
      </trkpt>
      <trkpt lat="59.8483961" lon="17.760986">
        <ele>13.1151</ele>
        <time>2012-05-24T18:52:36Z</time>
      </trkpt>
      <trkpt lat="59.8484448" lon="17.7594014">
        <ele>14.0764</ele>
        <time>2012-05-24T18:52:46Z</time>
      </trkpt>
      <trkpt lat="59.8484753" lon="17.7583243">
        <ele>14.557</ele>
        <time>2012-05-24T18:52:53Z</time>
      </trkpt>
      <trkpt lat="59.8484892" lon="17.7568323">
        <ele>14.557</ele>
        <time>2012-05-24T18:53:03Z</time>
      </trkpt>
      <trkpt lat="59.8484201" lon="17.7555744">
        <ele>14.557</ele>
        <time>2012-05-24T18:53:11Z</time>
      </trkpt>
      <trkpt lat="59.8482702" lon="17.754199">
        <ele>15.0377</ele>
        <time>2012-05-24T18:53:20Z</time>
      </trkpt>
      <trkpt lat="59.8481458" lon="17.7532317">
        <ele>15.999</ele>
        <time>2012-05-24T18:53:27Z</time>
      </trkpt>
      <trkpt lat="59.8480256" lon="17.7523113">
        <ele>17.4412</ele>
        <time>2012-05-24T18:53:35Z</time>
      </trkpt>
      <trkpt lat="59.8479318" lon="17.7514325">
        <ele>17.4412</ele>
        <time>2012-05-24T18:53:43Z</time>
      </trkpt>
      <trkpt lat="59.8478557" lon="17.7507115">
        <ele>19.3638</ele>
        <time>2012-05-24T18:53:49Z</time>
      </trkpt>
      <trkpt lat="59.8477641" lon="17.7496558">
        <ele>24.651</ele>
        <time>2012-05-24T18:53:58Z</time>
      </trkpt>
      <trkpt lat="59.8477362" lon="17.7487703">
        <ele>23.209</ele>
        <time>2012-05-24T18:54:05Z</time>
      </trkpt>
      <trkpt lat="59.8477324" lon="17.7474669">
        <ele>19.3638</ele>
        <time>2012-05-24T18:54:14Z</time>
      </trkpt>
      <trkpt lat="59.8477415" lon="17.7464558">
        <ele>16.9604</ele>
        <time>2012-05-24T18:54:20Z</time>
      </trkpt>
      <trkpt lat="59.8477801" lon="17.7449769">
        <ele>12.6344</ele>
        <time>2012-05-24T18:54:28Z</time>
      </trkpt>
      <trkpt lat="59.8478011" lon="17.7434521">
        <ele>11.1925</ele>
        <time>2012-05-24T18:54:36Z</time>
      </trkpt>
      <trkpt lat="59.8478237" lon="17.7417352">
        <ele>9.75061</ele>
        <time>2012-05-24T18:54:45Z</time>
      </trkpt>
      <trkpt lat="59.8478643" lon="17.7400345">
        <ele>6.86646</ele>
        <time>2012-05-24T18:54:54Z</time>
      </trkpt>
      <trkpt lat="59.8478454" lon="17.7394901">
        <ele>6.86646</ele>
        <time>2012-05-24T18:54:57Z</time>
      </trkpt>
      <trkpt lat="59.8479338" lon="17.738863">
        <ele>8.30859</ele>
        <time>2012-05-24T18:55:01Z</time>
      </trkpt>
      <trkpt lat="59.8480899" lon="17.7387467">
        <ele>8.78918</ele>
        <time>2012-05-24T18:55:03Z</time>
      </trkpt>
      <trkpt lat="59.8481774" lon="17.7387229">
        <ele>8.78918</ele>
        <time>2012-05-24T18:55:04Z</time>
      </trkpt>
      <trkpt lat="59.8489648" lon="17.7383768">
        <ele>8.78918</ele>
        <time>2012-05-24T18:55:13Z</time>
      </trkpt>
      <trkpt lat="59.849661" lon="17.7380856">
        <ele>8.30859</ele>
        <time>2012-05-24T18:55:21Z</time>
      </trkpt>
      <trkpt lat="59.8503707" lon="17.7377552">
        <ele>9.75061</ele>
        <time>2012-05-24T18:55:29Z</time>
      </trkpt>
      <trkpt lat="59.8510497" lon="17.7372372">
        <ele>9.75061</ele>
        <time>2012-05-24T18:55:37Z</time>
      </trkpt>
      <trkpt lat="59.8515889" lon="17.7366919">
        <ele>8.78918</ele>
        <time>2012-05-24T18:55:44Z</time>
      </trkpt>
      <trkpt lat="59.8520071" lon="17.7360121">
        <ele>9.2699</ele>
        <time>2012-05-24T18:55:50Z</time>
      </trkpt>
      <trkpt lat="59.8523955" lon="17.7355255">
        <ele>9.2699</ele>
        <time>2012-05-24T18:55:55Z</time>
      </trkpt>
      <trkpt lat="59.8530716" lon="17.7346957">
        <ele>8.30859</ele>
        <time>2012-05-24T18:56:04Z</time>
      </trkpt>
      <trkpt lat="59.8535243" lon="17.7340048">
        <ele>6.86646</ele>
        <time>2012-05-24T18:56:10Z</time>
      </trkpt>
      <trkpt lat="59.8537512" lon="17.7332945">
        <ele>5.42456</ele>
        <time>2012-05-24T18:56:14Z</time>
      </trkpt>
      <trkpt lat="59.8538809" lon="17.7324357">
        <ele>3.50195</ele>
        <time>2012-05-24T18:56:18Z</time>
      </trkpt>
      <trkpt lat="59.8540528" lon="17.7309838">
        <ele>2.54065</ele>
        <time>2012-05-24T18:56:25Z</time>
      </trkpt>
      <trkpt lat="59.8540766" lon="17.7307941">
        <ele>3.02124</ele>
        <time>2012-05-24T18:56:26Z</time>
      </trkpt>
      <trkpt lat="59.8542846" lon="17.73001">
        <ele>4.94385</ele>
        <time>2012-05-24T18:56:31Z</time>
      </trkpt>
      <trkpt lat="59.8545611" lon="17.7292868">
        <ele>5.90527</ele>
        <time>2012-05-24T18:56:37Z</time>
      </trkpt>
      <trkpt lat="59.8549839" lon="17.7281969">
        <ele>6.38586</ele>
        <time>2012-05-24T18:56:46Z</time>
      </trkpt>
      <trkpt lat="59.8554301" lon="17.7269937">
        <ele>6.38586</ele>
        <time>2012-05-24T18:56:55Z</time>
      </trkpt>
      <trkpt lat="59.8558282" lon="17.7258212">
        <ele>6.38586</ele>
        <time>2012-05-24T18:57:03Z</time>
      </trkpt>
      <trkpt lat="59.8562077" lon="17.7248695">
        <ele>6.86646</ele>
        <time>2012-05-24T18:57:10Z</time>
      </trkpt>
      <trkpt lat="59.8566836" lon="17.7237545">
        <ele>8.30859</ele>
        <time>2012-05-24T18:57:19Z</time>
      </trkpt>
      <trkpt lat="59.8570353" lon="17.7230644">
        <ele>9.75061</ele>
        <time>2012-05-24T18:57:26Z</time>
      </trkpt>
      <trkpt lat="59.8574182" lon="17.7224551">
        <ele>11.1925</ele>
        <time>2012-05-24T18:57:34Z</time>
      </trkpt>
      <trkpt lat="59.8574651" lon="17.7223769">
        <ele>10.2312</ele>
        <time>2012-05-24T18:57:35Z</time>
      </trkpt>
      <trkpt lat="59.8575879" lon="17.7221212">
        <ele>8.78918</ele>
        <time>2012-05-24T18:57:38Z</time>
      </trkpt>
      <trkpt lat="59.8577019" lon="17.7215865">
        <ele>9.75061</ele>
        <time>2012-05-24T18:57:43Z</time>
      </trkpt>
      <trkpt lat="59.8577101" lon="17.7214657">
        <ele>9.75061</ele>
        <time>2012-05-24T18:57:44Z</time>
      </trkpt>
      <trkpt lat="59.8577233" lon="17.7206276">
        <ele>9.75061</ele>
        <time>2012-05-24T18:57:50Z</time>
      </trkpt>
      <trkpt lat="59.8576911" lon="17.719774">
        <ele>10.7118</ele>
        <time>2012-05-24T18:57:55Z</time>
      </trkpt>
      <trkpt lat="59.8576506" lon="17.7183577">
        <ele>12.1538</ele>
        <time>2012-05-24T18:58:03Z</time>
      </trkpt>
      <trkpt lat="59.8576865" lon="17.71697">
        <ele>9.2699</ele>
        <time>2012-05-24T18:58:11Z</time>
      </trkpt>
      <trkpt lat="59.8576471" lon="17.7161071">
        <ele>10.2312</ele>
        <time>2012-05-24T18:58:16Z</time>
      </trkpt>
      <trkpt lat="59.857677" lon="17.7156098">
        <ele>10.7118</ele>
        <time>2012-05-24T18:58:19Z</time>
      </trkpt>
      <trkpt lat="59.8579315" lon="17.7145033">
        <ele>7.82788</ele>
        <time>2012-05-24T18:58:26Z</time>
      </trkpt>
      <trkpt lat="59.8581304" lon="17.7139381">
        <ele>8.30859</ele>
        <time>2012-05-24T18:58:30Z</time>
      </trkpt>
      <trkpt lat="59.8582652" lon="17.7131302">
        <ele>9.2699</ele>
        <time>2012-05-24T18:58:35Z</time>
      </trkpt>
      <trkpt lat="59.8584317" lon="17.7120251">
        <ele>9.75061</ele>
        <time>2012-05-24T18:58:42Z</time>
      </trkpt>
      <trkpt lat="59.8585172" lon="17.7115994">
        <ele>10.2312</ele>
        <time>2012-05-24T18:58:45Z</time>
      </trkpt>
      <trkpt lat="59.8585453" lon="17.710843">
        <ele>10.2312</ele>
        <time>2012-05-24T18:58:50Z</time>
      </trkpt>
      <trkpt lat="59.8584362" lon="17.7102359">
        <ele>13.5958</ele>
        <time>2012-05-24T18:58:54Z</time>
      </trkpt>
      <trkpt lat="59.8583688" lon="17.7099443">
        <ele>15.0377</ele>
        <time>2012-05-24T18:58:56Z</time>
      </trkpt>
      <trkpt lat="59.8582857" lon="17.7093161">
        <ele>15.999</ele>
        <time>2012-05-24T18:59:00Z</time>
      </trkpt>
      <trkpt lat="59.8583067" lon="17.7086447">
        <ele>18.4023</ele>
        <time>2012-05-24T18:59:04Z</time>
      </trkpt>
      <trkpt lat="59.8584467" lon="17.7073883">
        <ele>17.9218</ele>
        <time>2012-05-24T18:59:11Z</time>
      </trkpt>
      <trkpt lat="59.8585608" lon="17.706524">
        <ele>14.0764</ele>
        <time>2012-05-24T18:59:16Z</time>
      </trkpt>
      <trkpt lat="59.8588042" lon="17.7052537">
        <ele>9.2699</ele>
        <time>2012-05-24T18:59:24Z</time>
      </trkpt>
      <trkpt lat="59.8588303" lon="17.7051087">
        <ele>8.78918</ele>
        <time>2012-05-24T18:59:25Z</time>
      </trkpt>
      <trkpt lat="59.8590293" lon="17.7046466">
        <ele>8.78918</ele>
        <time>2012-05-24T18:59:29Z</time>
      </trkpt>
      <trkpt lat="59.8590965" lon="17.7045617">
        <ele>8.78918</ele>
        <time>2012-05-24T18:59:30Z</time>
      </trkpt>
      <trkpt lat="59.8592355" lon="17.7044216">
        <ele>8.30859</ele>
        <time>2012-05-24T18:59:32Z</time>
      </trkpt>
      <trkpt lat="59.8597228" lon="17.7042591">
        <ele>8.30859</ele>
        <time>2012-05-24T18:59:39Z</time>
      </trkpt>
      <trkpt lat="59.8602485" lon="17.7040399">
        <ele>8.78918</ele>
        <time>2012-05-24T18:59:46Z</time>
      </trkpt>
      <trkpt lat="59.8608301" lon="17.7037748">
        <ele>10.2312</ele>
        <time>2012-05-24T18:59:54Z</time>
      </trkpt>
      <trkpt lat="59.8609724" lon="17.7037473">
        <ele>10.7118</ele>
        <time>2012-05-24T18:59:56Z</time>
      </trkpt>
      <trkpt lat="59.8615337" lon="17.7038985">
        <ele>11.6732</ele>
        <time>2012-05-24T19:00:04Z</time>
      </trkpt>
      <trkpt lat="59.8621409" lon="17.704112">
        <ele>11.6732</ele>
        <time>2012-05-24T19:00:13Z</time>
      </trkpt>
      <trkpt lat="59.8627635" lon="17.7043736">
        <ele>11.1925</ele>
        <time>2012-05-24T19:00:22Z</time>
      </trkpt>
      <trkpt lat="59.8629625" lon="17.7044512">
        <ele>11.1925</ele>
        <time>2012-05-24T19:00:25Z</time>
      </trkpt>
      <trkpt lat="59.8632105" lon="17.7043306">
        <ele>12.6344</ele>
        <time>2012-05-24T19:00:29Z</time>
      </trkpt>
      <trkpt lat="59.8636229" lon="17.7038134">
        <ele>14.0764</ele>
        <time>2012-05-24T19:00:36Z</time>
      </trkpt>
      <trkpt lat="59.8638553" lon="17.7034956">
        <ele>13.5958</ele>
        <time>2012-05-24T19:00:40Z</time>
      </trkpt>
      <trkpt lat="59.8640772" lon="17.7032524">
        <ele>13.5958</ele>
        <time>2012-05-24T19:00:45Z</time>
      </trkpt>
      <trkpt lat="59.8641058" lon="17.7032168">
        <ele>13.1151</ele>
        <time>2012-05-24T19:00:46Z</time>
      </trkpt>
      <trkpt lat="59.8642796" lon="17.7030315">
        <ele>13.1151</ele>
        <time>2012-05-24T19:00:59Z</time>
      </trkpt>
      <trkpt lat="59.8643319" lon="17.7029651">
        <ele>12.6344</ele>
        <time>2012-05-24T19:01:03Z</time>
      </trkpt>
      <trkpt lat="59.8643626" lon="17.7029263">
        <ele>13.5958</ele>
        <time>2012-05-24T19:01:07Z</time>
      </trkpt>
      <trkpt lat="59.8643886" lon="17.7029179">
        <ele>13.5958</ele>
        <time>2012-05-24T19:01:09Z</time>
      </trkpt>
      <trkpt lat="59.8644784" lon="17.7027689">
        <ele>14.557</ele>
        <time>2012-05-24T19:01:13Z</time>
      </trkpt>
      <trkpt lat="59.8647097" lon="17.7024559">
        <ele>13.1151</ele>
        <time>2012-05-24T19:01:19Z</time>
      </trkpt>
      <trkpt lat="59.8650055" lon="17.7020239">
        <ele>10.7118</ele>
        <time>2012-05-24T19:01:25Z</time>
      </trkpt>
      <trkpt lat="59.865307" lon="17.7014955">
        <ele>9.75061</ele>
        <time>2012-05-24T19:01:32Z</time>
      </trkpt>
      <trkpt lat="59.8654069" lon="17.7012371">
        <ele>9.2699</ele>
        <time>2012-05-24T19:01:35Z</time>
      </trkpt>
      <trkpt lat="59.8656168" lon="17.7004834">
        <ele>11.1925</ele>
        <time>2012-05-24T19:01:43Z</time>
      </trkpt>
      <trkpt lat="59.8658151" lon="17.6999193">
        <ele>13.5958</ele>
        <time>2012-05-24T19:01:50Z</time>
      </trkpt>
      <trkpt lat="59.8660703" lon="17.6993246">
        <ele>16.4797</ele>
        <time>2012-05-24T19:01:57Z</time>
      </trkpt>
      <trkpt lat="59.8663466" lon="17.6989533">
        <ele>17.9218</ele>
        <time>2012-05-24T19:02:02Z</time>
      </trkpt>
      <trkpt lat="59.8667128" lon="17.6985085">
        <ele>15.5184</ele>
        <time>2012-05-24T19:02:08Z</time>
      </trkpt>
      <trkpt lat="59.8670698" lon="17.6979488">
        <ele>13.5958</ele>
        <time>2012-05-24T19:02:13Z</time>
      </trkpt>
      <trkpt lat="59.8673589" lon="17.6976165">
        <ele>13.1151</ele>
        <time>2012-05-24T19:02:17Z</time>
      </trkpt>
      <trkpt lat="59.8676695" lon="17.697451">
        <ele>15.999</ele>
        <time>2012-05-24T19:02:21Z</time>
      </trkpt>
      <trkpt lat="59.8680084" lon="17.697079">
        <ele>17.4412</ele>
        <time>2012-05-24T19:02:26Z</time>
      </trkpt>
      <trkpt lat="59.8685125" lon="17.6965615">
        <ele>17.4412</ele>
        <time>2012-05-24T19:02:33Z</time>
      </trkpt>
      <trkpt lat="59.8689722" lon="17.6961141">
        <ele>17.9218</ele>
        <time>2012-05-24T19:02:40Z</time>
      </trkpt>
      <trkpt lat="59.8692785" lon="17.6956773">
        <ele>17.9218</ele>
        <time>2012-05-24T19:02:45Z</time>
      </trkpt>
      <trkpt lat="59.8696986" lon="17.6951255">
        <ele>16.9604</ele>
        <time>2012-05-24T19:02:51Z</time>
      </trkpt>
      <trkpt lat="59.870167" lon="17.6946255">
        <ele>16.4797</ele>
        <time>2012-05-24T19:02:58Z</time>
      </trkpt>
      <trkpt lat="59.8705426" lon="17.6942282">
        <ele>14.0764</ele>
        <time>2012-05-24T19:03:04Z</time>
      </trkpt>
      <trkpt lat="59.8710035" lon="17.693627">
        <ele>12.1538</ele>
        <time>2012-05-24T19:03:12Z</time>
      </trkpt>
      <trkpt lat="59.8713107" lon="17.6930302">
        <ele>10.7118</ele>
        <time>2012-05-24T19:03:18Z</time>
      </trkpt>
      <trkpt lat="59.8716446" lon="17.692393">
        <ele>11.1925</ele>
        <time>2012-05-24T19:03:24Z</time>
      </trkpt>
      <trkpt lat="59.8719427" lon="17.6917476">
        <ele>12.6344</ele>
        <time>2012-05-24T19:03:30Z</time>
      </trkpt>
      <trkpt lat="59.8722869" lon="17.6910513">
        <ele>15.0377</ele>
        <time>2012-05-24T19:03:37Z</time>
      </trkpt>
      <trkpt lat="59.8725508" lon="17.6902687">
        <ele>18.8831</ele>
        <time>2012-05-24T19:03:44Z</time>
      </trkpt>
      <trkpt lat="59.8727823" lon="17.6895309">
        <ele>18.4023</ele>
        <time>2012-05-24T19:03:51Z</time>
      </trkpt>
      <trkpt lat="59.8730388" lon="17.6889636">
        <ele>18.8831</ele>
        <time>2012-05-24T19:03:57Z</time>
      </trkpt>
      <trkpt lat="59.87309" lon="17.6888618">
        <ele>18.4023</ele>
        <time>2012-05-24T19:03:58Z</time>
      </trkpt>
      <trkpt lat="59.8734277" lon="17.6884468">
        <ele>18.8831</ele>
        <time>2012-05-24T19:04:04Z</time>
      </trkpt>
      <trkpt lat="59.8737451" lon="17.6881169">
        <ele>18.4023</ele>
        <time>2012-05-24T19:04:09Z</time>
      </trkpt>
      <trkpt lat="59.8738146" lon="17.6880502">
        <ele>18.4023</ele>
        <time>2012-05-24T19:04:10Z</time>
      </trkpt>
      <trkpt lat="59.8739391" lon="17.687674">
        <ele>17.9218</ele>
        <time>2012-05-24T19:04:14Z</time>
      </trkpt>
      <trkpt lat="59.8740777" lon="17.6870576">
        <ele>16.4797</ele>
        <time>2012-05-24T19:04:19Z</time>
      </trkpt>
      <trkpt lat="59.8744746" lon="17.6862187">
        <ele>14.557</ele>
        <time>2012-05-24T19:04:27Z</time>
      </trkpt>
      <trkpt lat="59.8748892" lon="17.6853445">
        <ele>13.1151</ele>
        <time>2012-05-24T19:04:35Z</time>
      </trkpt>
      <trkpt lat="59.8752862" lon="17.6845275">
        <ele>13.1151</ele>
        <time>2012-05-24T19:04:43Z</time>
      </trkpt>
      <trkpt lat="59.8755998" lon="17.6838537">
        <ele>15.0377</ele>
        <time>2012-05-24T19:04:50Z</time>
      </trkpt>
      <trkpt lat="59.8758568" lon="17.6833163">
        <ele>16.4797</ele>
        <time>2012-05-24T19:04:56Z</time>
      </trkpt>
      <trkpt lat="59.8762333" lon="17.6824938">
        <ele>16.9604</ele>
        <time>2012-05-24T19:05:05Z</time>
      </trkpt>
      <trkpt lat="59.876596" lon="17.6816406">
        <ele>18.8831</ele>
        <time>2012-05-24T19:05:14Z</time>
      </trkpt>
      <trkpt lat="59.8769749" lon="17.6808193">
        <ele>19.3638</ele>
        <time>2012-05-24T19:05:22Z</time>
      </trkpt>
      <trkpt lat="59.8772492" lon="17.6802544">
        <ele>19.8444</ele>
        <time>2012-05-24T19:05:28Z</time>
      </trkpt>
      <trkpt lat="59.8773656" lon="17.6798436">
        <ele>19.8444</ele>
        <time>2012-05-24T19:05:32Z</time>
      </trkpt>
      <trkpt lat="59.8773942" lon="17.6796045">
        <ele>19.8444</ele>
        <time>2012-05-24T19:05:34Z</time>
      </trkpt>
      <trkpt lat="59.8776351" lon="17.6790812">
        <ele>19.3638</ele>
        <time>2012-05-24T19:05:39Z</time>
      </trkpt>
      <trkpt lat="59.8778906" lon="17.6787466">
        <ele>17.4412</ele>
        <time>2012-05-24T19:05:43Z</time>
      </trkpt>
      <trkpt lat="59.8782518" lon="17.6779076">
        <ele>17.9218</ele>
        <time>2012-05-24T19:05:50Z</time>
      </trkpt>
      <trkpt lat="59.8785569" lon="17.6772245">
        <ele>18.4023</ele>
        <time>2012-05-24T19:05:56Z</time>
      </trkpt>
      <trkpt lat="59.8789709" lon="17.6763786">
        <ele>18.4023</ele>
        <time>2012-05-24T19:06:04Z</time>
      </trkpt>
      <trkpt lat="59.879086" lon="17.6761914">
        <ele>18.4023</ele>
        <time>2012-05-24T19:06:06Z</time>
      </trkpt>
      <trkpt lat="59.8793834" lon="17.6757254">
        <ele>17.9218</ele>
        <time>2012-05-24T19:06:11Z</time>
      </trkpt>
      <trkpt lat="59.879891" lon="17.6749869">
        <ele>16.9604</ele>
        <time>2012-05-24T19:06:19Z</time>
      </trkpt>
      <trkpt lat="59.8803264" lon="17.674498">
        <ele>16.4797</ele>
        <time>2012-05-24T19:06:25Z</time>
      </trkpt>
      <trkpt lat="59.8809209" lon="17.6739404">
        <ele>15.5184</ele>
        <time>2012-05-24T19:06:33Z</time>
      </trkpt>
      <trkpt lat="59.8813161" lon="17.6735701">
        <ele>13.5958</ele>
        <time>2012-05-24T19:06:38Z</time>
      </trkpt>
      <trkpt lat="59.8814479" lon="17.6733907">
        <ele>13.5958</ele>
        <time>2012-05-24T19:06:40Z</time>
      </trkpt>
      <trkpt lat="59.8818051" lon="17.673177">
        <ele>15.5184</ele>
        <time>2012-05-24T19:06:45Z</time>
      </trkpt>
      <trkpt lat="59.882017" lon="17.6729905">
        <ele>15.5184</ele>
        <time>2012-05-24T19:06:48Z</time>
      </trkpt>
      <trkpt lat="59.8822392" lon="17.672603">
        <ele>15.999</ele>
        <time>2012-05-24T19:06:52Z</time>
      </trkpt>
      <trkpt lat="59.8824795" lon="17.6722756">
        <ele>15.999</ele>
        <time>2012-05-24T19:06:56Z</time>
      </trkpt>
      <trkpt lat="59.8830757" lon="17.6717768">
        <ele>15.0377</ele>
        <time>2012-05-24T19:07:04Z</time>
      </trkpt>
      <trkpt lat="59.8835356" lon="17.6712784">
        <ele>15.0377</ele>
        <time>2012-05-24T19:07:11Z</time>
      </trkpt>
      <trkpt lat="59.883663" lon="17.6711426">
        <ele>15.5184</ele>
        <time>2012-05-24T19:07:13Z</time>
      </trkpt>
      <trkpt lat="59.8838865" lon="17.6710314">
        <ele>15.0377</ele>
        <time>2012-05-24T19:07:16Z</time>
      </trkpt>
      <trkpt lat="59.8840496" lon="17.670761">
        <ele>15.999</ele>
        <time>2012-05-24T19:07:19Z</time>
      </trkpt>
      <trkpt lat="59.884077" lon="17.6706139">
        <ele>16.4797</ele>
        <time>2012-05-24T19:07:20Z</time>
      </trkpt>
      <trkpt lat="59.8841421" lon="17.6703248">
        <ele>16.4797</ele>
        <time>2012-05-24T19:07:22Z</time>
      </trkpt>
      <trkpt lat="59.8845033" lon="17.6695142">
        <ele>15.0377</ele>
        <time>2012-05-24T19:07:29Z</time>
      </trkpt>
      <trkpt lat="59.8848151" lon="17.6685627">
        <ele>9.75061</ele>
        <time>2012-05-24T19:07:36Z</time>
      </trkpt>
      <trkpt lat="59.8848903" lon="17.6682704">
        <ele>8.78918</ele>
        <time>2012-05-24T19:07:38Z</time>
      </trkpt>
      <trkpt lat="59.8850882" lon="17.6677933">
        <ele>7.82788</ele>
        <time>2012-05-24T19:07:42Z</time>
      </trkpt>
      <trkpt lat="59.8851587" lon="17.6673546">
        <ele>7.34717</ele>
        <time>2012-05-24T19:07:45Z</time>
      </trkpt>
      <trkpt lat="59.8851603" lon="17.6671819">
        <ele>5.90527</ele>
        <time>2012-05-24T19:07:46Z</time>
      </trkpt>
      <trkpt lat="59.8852242" lon="17.6660346">
        <ele>3.50195</ele>
        <time>2012-05-24T19:07:53Z</time>
      </trkpt>
      <trkpt lat="59.8853053" lon="17.6653892">
        <ele>3.50195</ele>
        <time>2012-05-24T19:07:57Z</time>
      </trkpt>
      <trkpt lat="59.8855043" lon="17.6648722">
        <ele>3.50195</ele>
        <time>2012-05-24T19:08:01Z</time>
      </trkpt>
      <trkpt lat="59.8857591" lon="17.6648016">
        <ele>2.06006</ele>
        <time>2012-05-24T19:08:04Z</time>
      </trkpt>
      <trkpt lat="59.8858407" lon="17.6648374">
        <ele>2.06006</ele>
        <time>2012-05-24T19:08:05Z</time>
      </trkpt>
      <trkpt lat="59.8861987" lon="17.6647634">
        <ele>2.54065</ele>
        <time>2012-05-24T19:08:10Z</time>
      </trkpt>
      <trkpt lat="59.8862895" lon="17.6644867">
        <ele>3.50195</ele>
        <time>2012-05-24T19:08:12Z</time>
      </trkpt>
      <trkpt lat="59.8865913" lon="17.6635103">
        <ele>5.90527</ele>
        <time>2012-05-24T19:08:19Z</time>
      </trkpt>
      <trkpt lat="59.8869083" lon="17.6628334">
        <ele>8.30859</ele>
        <time>2012-05-24T19:08:25Z</time>
      </trkpt>
      <trkpt lat="59.8870857" lon="17.6621535">
        <ele>9.2699</ele>
        <time>2012-05-24T19:08:30Z</time>
      </trkpt>
      <trkpt lat="59.8871079" lon="17.662005">
        <ele>9.2699</ele>
        <time>2012-05-24T19:08:31Z</time>
      </trkpt>
      <trkpt lat="59.887138" lon="17.6615477">
        <ele>9.2699</ele>
        <time>2012-05-24T19:08:34Z</time>
      </trkpt>
      <trkpt lat="59.8872846" lon="17.6610379">
        <ele>10.2312</ele>
        <time>2012-05-24T19:08:38Z</time>
      </trkpt>
      <trkpt lat="59.8874182" lon="17.6608939">
        <ele>10.2312</ele>
        <time>2012-05-24T19:08:40Z</time>
      </trkpt>
      <trkpt lat="59.8875669" lon="17.6607795">
        <ele>9.75061</ele>
        <time>2012-05-24T19:08:42Z</time>
      </trkpt>
      <trkpt lat="59.8878692" lon="17.6602942">
        <ele>9.75061</ele>
        <time>2012-05-24T19:08:47Z</time>
      </trkpt>
      <trkpt lat="59.8882984" lon="17.659124">
        <ele>8.78918</ele>
        <time>2012-05-24T19:08:56Z</time>
      </trkpt>
      <trkpt lat="59.8886716" lon="17.6581294">
        <ele>8.78918</ele>
        <time>2012-05-24T19:09:04Z</time>
      </trkpt>
      <trkpt lat="59.8889876" lon="17.6572728">
        <ele>8.78918</ele>
        <time>2012-05-24T19:09:11Z</time>
      </trkpt>
      <trkpt lat="59.8893298" lon="17.6563094">
        <ele>8.30859</ele>
        <time>2012-05-24T19:09:19Z</time>
      </trkpt>
      <trkpt lat="59.8897092" lon="17.6552518">
        <ele>7.82788</ele>
        <time>2012-05-24T19:09:28Z</time>
      </trkpt>
      <trkpt lat="59.8900107" lon="17.6544442">
        <ele>9.2699</ele>
        <time>2012-05-24T19:09:35Z</time>
      </trkpt>
      <trkpt lat="59.8903919" lon="17.6534036">
        <ele>12.1538</ele>
        <time>2012-05-24T19:09:44Z</time>
      </trkpt>
      <trkpt lat="59.8907164" lon="17.6525151">
        <ele>13.1151</ele>
        <time>2012-05-24T19:09:52Z</time>
      </trkpt>
      <trkpt lat="59.8910861" lon="17.651475">
        <ele>12.1538</ele>
        <time>2012-05-24T19:10:01Z</time>
      </trkpt>
      <trkpt lat="59.8913951" lon="17.6506777">
        <ele>14.557</ele>
        <time>2012-05-24T19:10:08Z</time>
      </trkpt>
      <trkpt lat="59.8916167" lon="17.6499395">
        <ele>15.0377</ele>
        <time>2012-05-24T19:10:14Z</time>
      </trkpt>
      <trkpt lat="59.8918124" lon="17.6490356">
        <ele>15.5184</ele>
        <time>2012-05-24T19:10:21Z</time>
      </trkpt>
      <trkpt lat="59.8920047" lon="17.6479671">
        <ele>15.5184</ele>
        <time>2012-05-24T19:10:29Z</time>
      </trkpt>
      <trkpt lat="59.8921236" lon="17.6471164">
        <ele>14.557</ele>
        <time>2012-05-24T19:10:35Z</time>
      </trkpt>
      <trkpt lat="59.8922149" lon="17.6462108">
        <ele>14.0764</ele>
        <time>2012-05-24T19:10:41Z</time>
      </trkpt>
      <trkpt lat="59.8923185" lon="17.6451833">
        <ele>12.1538</ele>
        <time>2012-05-24T19:10:48Z</time>
      </trkpt>
      <trkpt lat="59.8924243" lon="17.6440996">
        <ele>12.6344</ele>
        <time>2012-05-24T19:10:56Z</time>
      </trkpt>
      <trkpt lat="59.8925418" lon="17.6431391">
        <ele>14.0764</ele>
        <time>2012-05-24T19:11:03Z</time>
      </trkpt>
      <trkpt lat="59.8927283" lon="17.6426299">
        <ele>14.557</ele>
        <time>2012-05-24T19:11:08Z</time>
      </trkpt>
      <trkpt lat="59.8927637" lon="17.6425261">
        <ele>14.557</ele>
        <time>2012-05-24T19:11:09Z</time>
      </trkpt>
      <trkpt lat="59.8930925" lon="17.6417995">
        <ele>13.1151</ele>
        <time>2012-05-24T19:11:17Z</time>
      </trkpt>
      <trkpt lat="59.8933593" lon="17.6411162">
        <ele>11.6732</ele>
        <time>2012-05-24T19:11:24Z</time>
      </trkpt>
      <trkpt lat="59.8935121" lon="17.6405293">
        <ele>11.1925</ele>
        <time>2012-05-24T19:11:29Z</time>
      </trkpt>
      <trkpt lat="59.8936728" lon="17.6399195">
        <ele>11.6732</ele>
        <time>2012-05-24T19:11:34Z</time>
      </trkpt>
      <trkpt lat="59.8937933" lon="17.6394592">
        <ele>11.1925</ele>
        <time>2012-05-24T19:11:38Z</time>
      </trkpt>
      <trkpt lat="59.8938615" lon="17.6392473">
        <ele>12.6344</ele>
        <time>2012-05-24T19:11:40Z</time>
      </trkpt>
      <trkpt lat="59.8940343" lon="17.6388485">
        <ele>13.1151</ele>
        <time>2012-05-24T19:11:44Z</time>
      </trkpt>
      <trkpt lat="59.8944683" lon="17.6381143">
        <ele>13.1151</ele>
        <time>2012-05-24T19:11:52Z</time>
      </trkpt>
      <trkpt lat="59.894619" lon="17.6378377">
        <ele>14.0764</ele>
        <time>2012-05-24T19:11:55Z</time>
      </trkpt>
      <trkpt lat="59.8947191" lon="17.6375116">
        <ele>13.1151</ele>
        <time>2012-05-24T19:11:58Z</time>
      </trkpt>
      <trkpt lat="59.8947596" lon="17.6372717">
        <ele>13.1151</ele>
        <time>2012-05-24T19:12:00Z</time>
      </trkpt>
      <trkpt lat="59.8949185" lon="17.6369256">
        <ele>15.5184</ele>
        <time>2012-05-24T19:12:04Z</time>
      </trkpt>
      <trkpt lat="59.8949926" lon="17.6368764">
        <ele>15.999</ele>
        <time>2012-05-24T19:12:05Z</time>
      </trkpt>
      <trkpt lat="59.8956489" lon="17.6365208">
        <ele>19.3638</ele>
        <time>2012-05-24T19:12:14Z</time>
      </trkpt>
      <trkpt lat="59.8958779" lon="17.6364896">
        <ele>20.8057</ele>
        <time>2012-05-24T19:12:17Z</time>
      </trkpt>
      <trkpt lat="59.8964802" lon="17.6366774">
        <ele>22.7283</ele>
        <time>2012-05-24T19:12:25Z</time>
      </trkpt>
      <trkpt lat="59.8971448" lon="17.6369731">
        <ele>20.325</ele>
        <time>2012-05-24T19:12:34Z</time>
      </trkpt>
      <trkpt lat="59.8976188" lon="17.6372767">
        <ele>17.9218</ele>
        <time>2012-05-24T19:12:40Z</time>
      </trkpt>
      <trkpt lat="59.8982571" lon="17.6377372">
        <ele>16.4797</ele>
        <time>2012-05-24T19:12:48Z</time>
      </trkpt>
      <trkpt lat="59.8987724" lon="17.638188">
        <ele>16.4797</ele>
        <time>2012-05-24T19:12:55Z</time>
      </trkpt>
      <trkpt lat="59.8992388" lon="17.6385889">
        <ele>15.999</ele>
        <time>2012-05-24T19:13:01Z</time>
      </trkpt>
      <trkpt lat="59.8997033" lon="17.6390705">
        <ele>12.1538</ele>
        <time>2012-05-24T19:13:07Z</time>
      </trkpt>
      <trkpt lat="59.9003077" lon="17.6397099">
        <ele>7.82788</ele>
        <time>2012-05-24T19:13:15Z</time>
      </trkpt>
      <trkpt lat="59.9007735" lon="17.6402063">
        <ele>4.94385</ele>
        <time>2012-05-24T19:13:21Z</time>
      </trkpt>
      <trkpt lat="59.9013949" lon="17.6408273">
        <ele>1.57935</ele>
        <time>2012-05-24T19:13:29Z</time>
      </trkpt>
      <trkpt lat="59.9018451" lon="17.6412256">
        <ele>0.618042</ele>
        <time>2012-05-24T19:13:35Z</time>
      </trkpt>
      <trkpt lat="59.9023743" lon="17.6416152">
        <ele>1.09863</ele>
        <time>2012-05-24T19:13:42Z</time>
      </trkpt>
      <trkpt lat="59.902842" lon="17.6418704">
        <ele>2.54065</ele>
        <time>2012-05-24T19:13:49Z</time>
      </trkpt>
      <trkpt lat="59.9032595" lon="17.6419943">
        <ele>2.54065</ele>
        <time>2012-05-24T19:13:56Z</time>
      </trkpt>
      <trkpt lat="59.9034956" lon="17.6421316">
        <ele>2.54065</ele>
        <time>2012-05-24T19:14:01Z</time>
      </trkpt>
      <trkpt lat="59.9035418" lon="17.642156">
        <ele>2.54065</ele>
        <time>2012-05-24T19:14:03Z</time>
      </trkpt>
      <trkpt lat="59.9035646" lon="17.6421249">
        <ele>5.90527</ele>
        <time>2012-05-24T19:14:07Z</time>
      </trkpt>
      <trkpt lat="59.903569" lon="17.6419591">
        <ele>9.75061</ele>
        <time>2012-05-24T19:16:55Z</time>
      </trkpt>
      <trkpt lat="59.9035904" lon="17.6419374">
        <ele>9.75061</ele>
        <time>2012-05-24T19:16:56Z</time>
      </trkpt>
      <trkpt lat="59.9037419" lon="17.641971">
        <ele>9.75061</ele>
        <time>2012-05-24T19:16:59Z</time>
      </trkpt>
      <trkpt lat="59.9040085" lon="17.6421192">
        <ele>10.2312</ele>
        <time>2012-05-24T19:17:03Z</time>
      </trkpt>
      <trkpt lat="59.9045073" lon="17.6424248">
        <ele>11.1925</ele>
        <time>2012-05-24T19:17:10Z</time>
      </trkpt>
      <trkpt lat="59.9046595" lon="17.6425134">
        <ele>12.6344</ele>
        <time>2012-05-24T19:17:12Z</time>
      </trkpt>
      <trkpt lat="59.9048041" lon="17.6426274">
        <ele>14.557</ele>
        <time>2012-05-24T19:17:14Z</time>
      </trkpt>
      <trkpt lat="59.9052288" lon="17.6428335">
        <ele>17.4412</ele>
        <time>2012-05-24T19:17:20Z</time>
      </trkpt>
      <trkpt lat="59.9056968" lon="17.6429686">
        <ele>18.4023</ele>
        <time>2012-05-24T19:17:26Z</time>
      </trkpt>
      <trkpt lat="59.9058533" lon="17.6430297">
        <ele>19.8444</ele>
        <time>2012-05-24T19:17:28Z</time>
      </trkpt>
      <trkpt lat="59.9063363" lon="17.6432866">
        <ele>24.651</ele>
        <time>2012-05-24T19:17:35Z</time>
      </trkpt>
      <trkpt lat="59.9068315" lon="17.6434556">
        <ele>27.0543</ele>
        <time>2012-05-24T19:17:43Z</time>
      </trkpt>
      <trkpt lat="59.9073168" lon="17.6435717">
        <ele>24.1703</ele>
        <time>2012-05-24T19:17:51Z</time>
      </trkpt>
      <trkpt lat="59.9077185" lon="17.6436421">
        <ele>21.767</ele>
        <time>2012-05-24T19:17:58Z</time>
      </trkpt>
      <trkpt lat="59.9080752" lon="17.6437175">
        <ele>20.325</ele>
        <time>2012-05-24T19:18:05Z</time>
      </trkpt>
      <trkpt lat="59.9084526" lon="17.643788">
        <ele>20.325</ele>
        <time>2012-05-24T19:18:12Z</time>
      </trkpt>
      <trkpt lat="59.9089427" lon="17.6437224">
        <ele>24.1703</ele>
        <time>2012-05-24T19:18:20Z</time>
      </trkpt>
      <trkpt lat="59.9096175" lon="17.6436115">
        <ele>24.1703</ele>
        <time>2012-05-24T19:18:30Z</time>
      </trkpt>
      <trkpt lat="59.9098248" lon="17.6435534">
        <ele>23.6896</ele>
        <time>2012-05-24T19:18:33Z</time>
      </trkpt>
      <trkpt lat="59.910084" lon="17.6436291">
        <ele>19.8444</ele>
        <time>2012-05-24T19:18:37Z</time>
      </trkpt>
      <trkpt lat="59.9104266" lon="17.6435929">
        <ele>24.1703</ele>
        <time>2012-05-24T19:18:43Z</time>
      </trkpt>
      <trkpt lat="59.910679" lon="17.6434451">
        <ele>26.0929</ele>
        <time>2012-05-24T19:18:47Z</time>
      </trkpt>
      <trkpt lat="59.9112152" lon="17.6433604">
        <ele>21.2864</ele>
        <time>2012-05-24T19:18:55Z</time>
      </trkpt>
      <trkpt lat="59.9116757" lon="17.6432477">
        <ele>15.0377</ele>
        <time>2012-05-24T19:19:02Z</time>
      </trkpt>
      <trkpt lat="59.9121511" lon="17.6431034">
        <ele>8.78918</ele>
        <time>2012-05-24T19:19:09Z</time>
      </trkpt>
      <trkpt lat="59.9125252" lon="17.6429927">
        <ele>2.54065</ele>
        <time>2012-05-24T19:19:14Z</time>
      </trkpt>
      <trkpt lat="59.912744" lon="17.643079">
        <ele>3.98267</ele>
        <time>2012-05-24T19:19:17Z</time>
      </trkpt>
      <trkpt lat="59.9130798" lon="17.6431241">
        <ele>2.54065</ele>
        <time>2012-05-24T19:19:22Z</time>
      </trkpt>
      <trkpt lat="59.9134726" lon="17.6430092">
        <ele>8.78918</ele>
        <time>2012-05-24T19:19:28Z</time>
      </trkpt>
      <trkpt lat="59.9139116" lon="17.6429049">
        <ele>9.75061</ele>
        <time>2012-05-24T19:19:34Z</time>
      </trkpt>
      <trkpt lat="59.9144801" lon="17.6427971">
        <ele>10.7118</ele>
        <time>2012-05-24T19:19:41Z</time>
      </trkpt>
      <trkpt lat="59.9151231" lon="17.6426732">
        <ele>9.75061</ele>
        <time>2012-05-24T19:19:49Z</time>
      </trkpt>
      <trkpt lat="59.915352" lon="17.6425482">
        <ele>10.2312</ele>
        <time>2012-05-24T19:19:52Z</time>
      </trkpt>
      <trkpt lat="59.9158021" lon="17.6424211">
        <ele>12.6344</ele>
        <time>2012-05-24T19:19:57Z</time>
      </trkpt>
      <trkpt lat="59.9163875" lon="17.6424217">
        <ele>19.8444</ele>
        <time>2012-05-24T19:20:04Z</time>
      </trkpt>
      <trkpt lat="59.9171447" lon="17.6422842">
        <ele>23.6896</ele>
        <time>2012-05-24T19:20:13Z</time>
      </trkpt>
      <trkpt lat="59.9175815" lon="17.6422747">
        <ele>21.2864</ele>
        <time>2012-05-24T19:20:18Z</time>
      </trkpt>
      <trkpt lat="59.9181595" lon="17.6422513">
        <ele>23.6896</ele>
        <time>2012-05-24T19:20:25Z</time>
      </trkpt>
      <trkpt lat="59.9185888" lon="17.642201">
        <ele>26.5736</ele>
        <time>2012-05-24T19:20:31Z</time>
      </trkpt>
      <trkpt lat="59.9191251" lon="17.6421299">
        <ele>21.767</ele>
        <time>2012-05-24T19:20:39Z</time>
      </trkpt>
      <trkpt lat="59.9197584" lon="17.642038">
        <ele>21.767</ele>
        <time>2012-05-24T19:20:48Z</time>
      </trkpt>
      <trkpt lat="59.9202044" lon="17.6419625">
        <ele>17.4412</ele>
        <time>2012-05-24T19:20:54Z</time>
      </trkpt>
      <trkpt lat="59.9208094" lon="17.6419192">
        <ele>18.8831</ele>
        <time>2012-05-24T19:21:02Z</time>
      </trkpt>
      <trkpt lat="59.9212216" lon="17.6418949">
        <ele>24.651</ele>
        <time>2012-05-24T19:21:08Z</time>
      </trkpt>
      <trkpt lat="59.9216281" lon="17.6418342">
        <ele>23.6896</ele>
        <time>2012-05-24T19:21:14Z</time>
      </trkpt>
      <trkpt lat="59.9219959" lon="17.6417838">
        <ele>25.1317</ele>
        <time>2012-05-24T19:21:19Z</time>
      </trkpt>
      <trkpt lat="59.9225663" lon="17.6417182">
        <ele>26.0929</ele>
        <time>2012-05-24T19:21:26Z</time>
      </trkpt>
      <trkpt lat="59.9231402" lon="17.6416373">
        <ele>25.1317</ele>
        <time>2012-05-24T19:21:33Z</time>
      </trkpt>
      <trkpt lat="59.9237486" lon="17.6415393">
        <ele>24.1703</ele>
        <time>2012-05-24T19:21:40Z</time>
      </trkpt>
      <trkpt lat="59.9243875" lon="17.6414566">
        <ele>15.0377</ele>
        <time>2012-05-24T19:21:47Z</time>
      </trkpt>
      <trkpt lat="59.9250086" lon="17.641365">
        <ele>11.1925</ele>
        <time>2012-05-24T19:21:54Z</time>
      </trkpt>
      <trkpt lat="59.9255287" lon="17.6413344">
        <ele>11.6732</ele>
        <time>2012-05-24T19:22:00Z</time>
      </trkpt>
      <trkpt lat="59.9260451" lon="17.641251">
        <ele>11.6732</ele>
        <time>2012-05-24T19:22:06Z</time>
      </trkpt>
      <trkpt lat="59.9268512" lon="17.6411226">
        <ele>10.7118</ele>
        <time>2012-05-24T19:22:15Z</time>
      </trkpt>
      <trkpt lat="59.9276385" lon="17.6410454">
        <ele>9.2699</ele>
        <time>2012-05-24T19:22:24Z</time>
      </trkpt>
      <trkpt lat="59.9283911" lon="17.6409755">
        <ele>7.34717</ele>
        <time>2012-05-24T19:22:33Z</time>
      </trkpt>
      <trkpt lat="59.9290158" lon="17.6408568">
        <ele>5.42456</ele>
        <time>2012-05-24T19:22:41Z</time>
      </trkpt>
      <trkpt lat="59.9294856" lon="17.6408822">
        <ele>5.42456</ele>
        <time>2012-05-24T19:22:47Z</time>
      </trkpt>
      <trkpt lat="59.9299875" lon="17.6407936">
        <ele>3.98267</ele>
        <time>2012-05-24T19:22:53Z</time>
      </trkpt>
      <trkpt lat="59.9305591" lon="17.6408599">
        <ele>1.09863</ele>
        <time>2012-05-24T19:23:00Z</time>
      </trkpt>
      <trkpt lat="59.9309104" lon="17.6408127">
        <ele>4.46326</ele>
        <time>2012-05-24T19:23:05Z</time>
      </trkpt>
      <trkpt lat="59.9309852" lon="17.6408454">
        <ele>3.50195</ele>
        <time>2012-05-24T19:23:06Z</time>
      </trkpt>
      <trkpt lat="59.9313813" lon="17.641141">
        <ele>1.09863</ele>
        <time>2012-05-24T19:23:12Z</time>
      </trkpt>
      <trkpt lat="59.9316816" lon="17.6414132">
        <ele>3.02124</ele>
        <time>2012-05-24T19:23:18Z</time>
      </trkpt>
      <trkpt lat="59.9320516" lon="17.6416548">
        <ele>0</ele>
        <time>2012-05-24T19:23:24Z</time>
      </trkpt>
      <trkpt lat="59.9324175" lon="17.6420411">
        <ele>0.137451</ele>
        <time>2012-05-24T19:23:31Z</time>
      </trkpt>
      <trkpt lat="59.9327633" lon="17.6423999">
        <ele>2.06006</ele>
        <time>2012-05-24T19:23:37Z</time>
      </trkpt>
      <trkpt lat="59.9328839" lon="17.6426152">
        <ele>7.34717</ele>
        <time>2012-05-24T19:23:40Z</time>
      </trkpt>
      <trkpt lat="59.9332025" lon="17.6430007">
        <ele>15.0377</ele>
        <time>2012-05-24T19:23:47Z</time>
      </trkpt>
      <trkpt lat="59.9333149" lon="17.643199">
        <ele>16.9604</ele>
        <time>2012-05-24T19:23:50Z</time>
      </trkpt>
      <trkpt lat="59.933482" lon="17.6434754">
        <ele>18.8831</ele>
        <time>2012-05-24T19:23:56Z</time>
      </trkpt>
      <trkpt lat="59.9337436" lon="17.6436753">
        <ele>14.557</ele>
        <time>2012-05-24T19:24:03Z</time>
      </trkpt>
      <trkpt lat="59.9339636" lon="17.6438892">
        <ele>21.767</ele>
        <time>2012-05-24T19:24:09Z</time>
      </trkpt>
      <trkpt lat="59.9342098" lon="17.6442248">
        <ele>23.6896</ele>
        <time>2012-05-24T19:24:16Z</time>
      </trkpt>
      <trkpt lat="59.9343632" lon="17.6444673">
        <ele>25.6123</ele>
        <time>2012-05-24T19:24:20Z</time>
      </trkpt>
      <trkpt lat="59.9345165" lon="17.6447829">
        <ele>28.4962</ele>
        <time>2012-05-24T19:24:26Z</time>
      </trkpt>
      <trkpt lat="59.9348507" lon="17.6451626">
        <ele>28.0155</ele>
        <time>2012-05-24T19:24:34Z</time>
      </trkpt>
      <trkpt lat="59.9348814" lon="17.6452101">
        <ele>26.0929</ele>
        <time>2012-05-24T19:24:35Z</time>
      </trkpt>
      <trkpt lat="59.9351855" lon="17.6455919">
        <ele>21.767</ele>
        <time>2012-05-24T19:24:42Z</time>
      </trkpt>
      <trkpt lat="59.9352694" lon="17.6457421">
        <ele>25.6123</ele>
        <time>2012-05-24T19:24:44Z</time>
      </trkpt>
      <trkpt lat="59.9356521" lon="17.6461482">
        <ele>29.4575</ele>
        <time>2012-05-24T19:24:51Z</time>
      </trkpt>
      <trkpt lat="59.936024" lon="17.6465485">
        <ele>25.6123</ele>
        <time>2012-05-24T19:24:58Z</time>
      </trkpt>
      <trkpt lat="59.9362669" lon="17.6468609">
        <ele>26.5736</ele>
        <time>2012-05-24T19:25:03Z</time>
      </trkpt>
      <trkpt lat="59.9365951" lon="17.6472795">
        <ele>24.1703</ele>
        <time>2012-05-24T19:25:08Z</time>
      </trkpt>
      <trkpt lat="59.9368695" lon="17.6476446">
        <ele>21.767</ele>
        <time>2012-05-24T19:25:13Z</time>
      </trkpt>
      <trkpt lat="59.9372736" lon="17.6481809">
        <ele>19.8444</ele>
        <time>2012-05-24T19:25:20Z</time>
      </trkpt>
      <trkpt lat="59.9375378" lon="17.64872">
        <ele>24.1703</ele>
        <time>2012-05-24T19:25:25Z</time>
      </trkpt>
      <trkpt lat="59.9377848" lon="17.6492852">
        <ele>26.5736</ele>
        <time>2012-05-24T19:25:30Z</time>
      </trkpt>
      <trkpt lat="59.9380298" lon="17.6500445">
        <ele>27.0543</ele>
        <time>2012-05-24T19:25:36Z</time>
      </trkpt>
      <trkpt lat="59.9382862" lon="17.6507517">
        <ele>30.8995</ele>
        <time>2012-05-24T19:25:42Z</time>
      </trkpt>
      <trkpt lat="59.9384356" lon="17.6510781">
        <ele>30.8995</ele>
        <time>2012-05-24T19:25:45Z</time>
      </trkpt>
      <trkpt lat="59.9387189" lon="17.6519706">
        <ele>30.4188</ele>
        <time>2012-05-24T19:25:52Z</time>
      </trkpt>
      <trkpt lat="59.9389757" lon="17.652829">
        <ele>34.2642</ele>
        <time>2012-05-24T19:25:59Z</time>
      </trkpt>
      <trkpt lat="59.939212" lon="17.6537991">
        <ele>33.3029</ele>
        <time>2012-05-24T19:26:07Z</time>
      </trkpt>
      <trkpt lat="59.9393418" lon="17.6544898">
        <ele>34.2642</ele>
        <time>2012-05-24T19:26:13Z</time>
      </trkpt>
      <trkpt lat="59.9395022" lon="17.6552961">
        <ele>38.1094</ele>
        <time>2012-05-24T19:26:20Z</time>
      </trkpt>
      <trkpt lat="59.9396631" lon="17.6561572">
        <ele>36.6675</ele>
        <time>2012-05-24T19:26:27Z</time>
      </trkpt>
      <trkpt lat="59.9398957" lon="17.6572175">
        <ele>37.1481</ele>
        <time>2012-05-24T19:26:35Z</time>
      </trkpt>
      <trkpt lat="59.9401366" lon="17.6583479">
        <ele>35.2255</ele>
        <time>2012-05-24T19:26:43Z</time>
      </trkpt>
      <trkpt lat="59.9403396" lon="17.6593435">
        <ele>34.7449</ele>
        <time>2012-05-24T19:26:50Z</time>
      </trkpt>
      <trkpt lat="59.9405013" lon="17.6601298">
        <ele>35.2255</ele>
        <time>2012-05-24T19:26:56Z</time>
      </trkpt>
      <trkpt lat="59.9405541" lon="17.6604213">
        <ele>33.7834</ele>
        <time>2012-05-24T19:26:59Z</time>
      </trkpt>
      <trkpt lat="59.9404543" lon="17.6609577">
        <ele>30.4188</ele>
        <time>2012-05-24T19:27:03Z</time>
      </trkpt>
      <trkpt lat="59.9404444" lon="17.6615932">
        <ele>30.8995</ele>
        <time>2012-05-24T19:27:07Z</time>
      </trkpt>
      <trkpt lat="59.940536" lon="17.6619707">
        <ele>30.8995</ele>
        <time>2012-05-24T19:27:10Z</time>
      </trkpt>
      <trkpt lat="59.9407246" lon="17.6621387">
        <ele>29.4575</ele>
        <time>2012-05-24T19:27:13Z</time>
      </trkpt>
      <trkpt lat="59.9407991" lon="17.6621378">
        <ele>29.9381</ele>
        <time>2012-05-24T19:27:14Z</time>
      </trkpt>
      <trkpt lat="59.9410659" lon="17.6621998">
        <ele>29.4575</ele>
        <time>2012-05-24T19:27:18Z</time>
      </trkpt>
      <trkpt lat="59.941255" lon="17.6623291">
        <ele>28.4962</ele>
        <time>2012-05-24T19:27:21Z</time>
      </trkpt>
      <trkpt lat="59.941585" lon="17.6627358">
        <ele>27.0543</ele>
        <time>2012-05-24T19:27:27Z</time>
      </trkpt>
      <trkpt lat="59.9419821" lon="17.6634087">
        <ele>29.4575</ele>
        <time>2012-05-24T19:27:35Z</time>
      </trkpt>
      <trkpt lat="59.9423745" lon="17.6639564">
        <ele>29.9381</ele>
        <time>2012-05-24T19:27:42Z</time>
      </trkpt>
      <trkpt lat="59.9427694" lon="17.6644758">
        <ele>31.8607</ele>
        <time>2012-05-24T19:27:49Z</time>
      </trkpt>
      <trkpt lat="59.9432864" lon="17.6649303">
        <ele>33.7834</ele>
        <time>2012-05-24T19:27:56Z</time>
      </trkpt>
      <trkpt lat="59.9437601" lon="17.665294">
        <ele>29.4575</ele>
        <time>2012-05-24T19:28:02Z</time>
      </trkpt>
      <trkpt lat="59.9444102" lon="17.6656796">
        <ele>18.4023</ele>
        <time>2012-05-24T19:28:10Z</time>
      </trkpt>
      <trkpt lat="59.9452047" lon="17.6659942">
        <ele>9.2699</ele>
        <time>2012-05-24T19:28:19Z</time>
      </trkpt>
      <trkpt lat="59.9459065" lon="17.6662686">
        <ele>3.50195</ele>
        <time>2012-05-24T19:28:27Z</time>
      </trkpt>
      <trkpt lat="59.9464758" lon="17.6665295">
        <ele>3.98267</ele>
        <time>2012-05-24T19:28:34Z</time>
      </trkpt>
      <trkpt lat="59.9466294" lon="17.6666051">
        <ele>5.42456</ele>
        <time>2012-05-24T19:28:36Z</time>
      </trkpt>
      <trkpt lat="59.9471982" lon="17.6667867">
        <ele>5.90527</ele>
        <time>2012-05-24T19:28:43Z</time>
      </trkpt>
      <trkpt lat="59.9479278" lon="17.6671195">
        <ele>5.90527</ele>
        <time>2012-05-24T19:28:52Z</time>
      </trkpt>
      <trkpt lat="59.9484596" lon="17.6674105">
        <ele>9.75061</ele>
        <time>2012-05-24T19:28:59Z</time>
      </trkpt>
      <trkpt lat="59.9489147" lon="17.6676622">
        <ele>13.1151</ele>
        <time>2012-05-24T19:29:05Z</time>
      </trkpt>
      <trkpt lat="59.9492855" lon="17.6678757">
        <ele>13.5958</ele>
        <time>2012-05-24T19:29:10Z</time>
      </trkpt>
      <trkpt lat="59.9495" lon="17.6679692">
        <ele>15.0377</ele>
        <time>2012-05-24T19:29:13Z</time>
      </trkpt>
      <trkpt lat="59.9499846" lon="17.6681895">
        <ele>16.9604</ele>
        <time>2012-05-24T19:29:20Z</time>
      </trkpt>
      <trkpt lat="59.9504626" lon="17.6682885">
        <ele>16.4797</ele>
        <time>2012-05-24T19:29:27Z</time>
      </trkpt>
      <trkpt lat="59.9508998" lon="17.6681807">
        <ele>17.9218</ele>
        <time>2012-05-24T19:29:33Z</time>
      </trkpt>
      <trkpt lat="59.9514488" lon="17.6679954">
        <ele>14.557</ele>
        <time>2012-05-24T19:29:40Z</time>
      </trkpt>
      <trkpt lat="59.9517281" lon="17.6681967">
        <ele>12.6344</ele>
        <time>2012-05-24T19:29:44Z</time>
      </trkpt>
      <trkpt lat="59.9518412" lon="17.6686309">
        <ele>13.1151</ele>
        <time>2012-05-24T19:29:47Z</time>
      </trkpt>
      <trkpt lat="59.9518352" lon="17.6690376">
        <ele>13.1151</ele>
        <time>2012-05-24T19:29:50Z</time>
      </trkpt>
      <trkpt lat="59.951825" lon="17.6691754">
        <ele>13.1151</ele>
        <time>2012-05-24T19:29:51Z</time>
      </trkpt>
      <trkpt lat="59.9517562" lon="17.6703132">
        <ele>20.8057</ele>
        <time>2012-05-24T19:30:00Z</time>
      </trkpt>
      <trkpt lat="59.9517394" lon="17.6709053">
        <ele>25.6123</ele>
        <time>2012-05-24T19:30:05Z</time>
      </trkpt>
      <trkpt lat="59.9518012" lon="17.671281">
        <ele>27.5349</ele>
        <time>2012-05-24T19:30:09Z</time>
      </trkpt>
      <trkpt lat="59.9518173" lon="17.6718477">
        <ele>27.5349</ele>
        <time>2012-05-24T19:30:16Z</time>
      </trkpt>
      <trkpt lat="59.9518876" lon="17.6724958">
        <ele>31.3801</ele>
        <time>2012-05-24T19:30:23Z</time>
      </trkpt>
      <trkpt lat="59.9519823" lon="17.6732412">
        <ele>30.8995</ele>
        <time>2012-05-24T19:30:31Z</time>
      </trkpt>
      <trkpt lat="59.9521336" lon="17.6740001">
        <ele>31.3801</ele>
        <time>2012-05-24T19:30:39Z</time>
      </trkpt>
      <trkpt lat="59.9522609" lon="17.6746849">
        <ele>29.4575</ele>
        <time>2012-05-24T19:30:46Z</time>
      </trkpt>
      <trkpt lat="59.9522989" lon="17.6749365">
        <ele>29.4575</ele>
        <time>2012-05-24T19:30:49Z</time>
      </trkpt>
      <trkpt lat="59.9523679" lon="17.6751796">
        <ele>30.8995</ele>
        <time>2012-05-24T19:30:52Z</time>
      </trkpt>
      <trkpt lat="59.9525712" lon="17.675661">
        <ele>31.8607</ele>
        <time>2012-05-24T19:30:58Z</time>
      </trkpt>
      <trkpt lat="59.9528071" lon="17.6762769">
        <ele>31.3801</ele>
        <time>2012-05-24T19:31:03Z</time>
      </trkpt>
      <trkpt lat="59.9530292" lon="17.6769029">
        <ele>27.5349</ele>
        <time>2012-05-24T19:31:08Z</time>
      </trkpt>
      <trkpt lat="59.9531419" lon="17.6772817">
        <ele>24.651</ele>
        <time>2012-05-24T19:31:11Z</time>
      </trkpt>
      <trkpt lat="59.9535174" lon="17.6782814">
        <ele>24.1703</ele>
        <time>2012-05-24T19:31:19Z</time>
      </trkpt>
      <trkpt lat="59.9538474" lon="17.6794201">
        <ele>20.8057</ele>
        <time>2012-05-24T19:31:27Z</time>
      </trkpt>
      <trkpt lat="59.954101" lon="17.6801386">
        <ele>20.8057</ele>
        <time>2012-05-24T19:31:33Z</time>
      </trkpt>
      <trkpt lat="59.9543336" lon="17.6807115">
        <ele>20.8057</ele>
        <time>2012-05-24T19:31:38Z</time>
      </trkpt>
      <trkpt lat="59.9545226" lon="17.681461">
        <ele>19.3638</ele>
        <time>2012-05-24T19:31:44Z</time>
      </trkpt>
      <trkpt lat="59.9545956" lon="17.6816717">
        <ele>18.4023</ele>
        <time>2012-05-24T19:31:46Z</time>
      </trkpt>
      <trkpt lat="59.9548502" lon="17.6821464">
        <ele>19.3638</ele>
        <time>2012-05-24T19:31:51Z</time>
      </trkpt>
      <trkpt lat="59.9549328" lon="17.6824011">
        <ele>20.325</ele>
        <time>2012-05-24T19:31:53Z</time>
      </trkpt>
      <trkpt lat="59.9550572" lon="17.6828967">
        <ele>22.7283</ele>
        <time>2012-05-24T19:31:57Z</time>
      </trkpt>
      <trkpt lat="59.9553398" lon="17.6839384">
        <ele>27.0543</ele>
        <time>2012-05-24T19:32:06Z</time>
      </trkpt>
      <trkpt lat="59.955462" lon="17.6847476">
        <ele>26.5736</ele>
        <time>2012-05-24T19:32:13Z</time>
      </trkpt>
      <trkpt lat="59.9556125" lon="17.6857688">
        <ele>25.1317</ele>
        <time>2012-05-24T19:32:22Z</time>
      </trkpt>
      <trkpt lat="59.955726" lon="17.6864516">
        <ele>25.6123</ele>
        <time>2012-05-24T19:32:28Z</time>
      </trkpt>
      <trkpt lat="59.9558753" lon="17.687273">
        <ele>27.5349</ele>
        <time>2012-05-24T19:32:35Z</time>
      </trkpt>
      <trkpt lat="59.9559707" lon="17.6882296">
        <ele>23.6896</ele>
        <time>2012-05-24T19:32:43Z</time>
      </trkpt>
      <trkpt lat="59.9560616" lon="17.6888614">
        <ele>23.6896</ele>
        <time>2012-05-24T19:32:49Z</time>
      </trkpt>
      <trkpt lat="59.9561483" lon="17.6891031">
        <ele>26.0929</ele>
        <time>2012-05-24T19:32:52Z</time>
      </trkpt>
      <trkpt lat="59.9562768" lon="17.6897289">
        <ele>26.0929</ele>
        <time>2012-05-24T19:32:58Z</time>
      </trkpt>
      <trkpt lat="59.9565268" lon="17.6903885">
        <ele>29.4575</ele>
        <time>2012-05-24T19:33:05Z</time>
      </trkpt>
      <trkpt lat="59.9568237" lon="17.6911269">
        <ele>27.5349</ele>
        <time>2012-05-24T19:33:12Z</time>
      </trkpt>
      <trkpt lat="59.9570621" lon="17.6919621">
        <ele>20.8057</ele>
        <time>2012-05-24T19:33:18Z</time>
      </trkpt>
      <trkpt lat="59.9573975" lon="17.6930286">
        <ele>21.767</ele>
        <time>2012-05-24T19:33:26Z</time>
      </trkpt>
      <trkpt lat="59.9576971" lon="17.693884">
        <ele>22.2476</ele>
        <time>2012-05-24T19:33:33Z</time>
      </trkpt>
      <trkpt lat="59.9580245" lon="17.6948175">
        <ele>22.2476</ele>
        <time>2012-05-24T19:33:41Z</time>
      </trkpt>
      <trkpt lat="59.9583472" lon="17.6957283">
        <ele>21.767</ele>
        <time>2012-05-24T19:33:49Z</time>
      </trkpt>
      <trkpt lat="59.9587069" lon="17.6966413">
        <ele>22.7283</ele>
        <time>2012-05-24T19:33:57Z</time>
      </trkpt>
      <trkpt lat="59.9587849" lon="17.6968723">
        <ele>23.209</ele>
        <time>2012-05-24T19:33:59Z</time>
      </trkpt>
      <trkpt lat="59.9589186" lon="17.6976291">
        <ele>25.1317</ele>
        <time>2012-05-24T19:34:05Z</time>
      </trkpt>
      <trkpt lat="59.9589923" lon="17.698376">
        <ele>29.4575</ele>
        <time>2012-05-24T19:34:11Z</time>
      </trkpt>
      <trkpt lat="59.9590439" lon="17.6993598">
        <ele>35.7061</ele>
        <time>2012-05-24T19:34:19Z</time>
      </trkpt>
      <trkpt lat="59.9591206" lon="17.7000249">
        <ele>40.0321</ele>
        <time>2012-05-24T19:34:24Z</time>
      </trkpt>
      <trkpt lat="59.9592719" lon="17.7009983">
        <ele>47.2418</ele>
        <time>2012-05-24T19:34:32Z</time>
      </trkpt>
      <trkpt lat="59.9593517" lon="17.7016354">
        <ele>45.3192</ele>
        <time>2012-05-24T19:34:38Z</time>
      </trkpt>
      <trkpt lat="59.9593854" lon="17.7018598">
        <ele>44.8386</ele>
        <time>2012-05-24T19:34:40Z</time>
      </trkpt>
      <trkpt lat="59.9596365" lon="17.7027434">
        <ele>43.8773</ele>
        <time>2012-05-24T19:34:48Z</time>
      </trkpt>
      <trkpt lat="59.9598609" lon="17.7035128">
        <ele>38.5901</ele>
        <time>2012-05-24T19:34:55Z</time>
      </trkpt>
      <trkpt lat="59.9599961" lon="17.7040259">
        <ele>34.2642</ele>
        <time>2012-05-24T19:34:59Z</time>
      </trkpt>
      <trkpt lat="59.9603101" lon="17.7045492">
        <ele>31.8607</ele>
        <time>2012-05-24T19:35:05Z</time>
      </trkpt>
      <trkpt lat="59.960727" lon="17.7050801">
        <ele>27.5349</ele>
        <time>2012-05-24T19:35:12Z</time>
      </trkpt>
      <trkpt lat="59.9610714" lon="17.7055112">
        <ele>21.767</ele>
        <time>2012-05-24T19:35:17Z</time>
      </trkpt>
      <trkpt lat="59.9613948" lon="17.7060547">
        <ele>19.8444</ele>
        <time>2012-05-24T19:35:23Z</time>
      </trkpt>
      <trkpt lat="59.9617825" lon="17.7066325">
        <ele>19.3638</ele>
        <time>2012-05-24T19:35:30Z</time>
      </trkpt>
      <trkpt lat="59.9624276" lon="17.707064">
        <ele>25.1317</ele>
        <time>2012-05-24T19:35:39Z</time>
      </trkpt>
      <trkpt lat="59.9629622" lon="17.7071599">
        <ele>26.5736</ele>
        <time>2012-05-24T19:35:46Z</time>
      </trkpt>
      <trkpt lat="59.9635539" lon="17.7071611">
        <ele>25.6123</ele>
        <time>2012-05-24T19:35:53Z</time>
      </trkpt>
      <trkpt lat="59.9641482" lon="17.7072409">
        <ele>23.6896</ele>
        <time>2012-05-24T19:36:00Z</time>
      </trkpt>
      <trkpt lat="59.9646337" lon="17.7074283">
        <ele>23.6896</ele>
        <time>2012-05-24T19:36:06Z</time>
      </trkpt>
      <trkpt lat="59.965127" lon="17.7078016">
        <ele>21.767</ele>
        <time>2012-05-24T19:36:12Z</time>
      </trkpt>
      <trkpt lat="59.9655724" lon="17.7082162">
        <ele>22.7283</ele>
        <time>2012-05-24T19:36:18Z</time>
      </trkpt>
      <trkpt lat="59.9658715" lon="17.7087575">
        <ele>22.2476</ele>
        <time>2012-05-24T19:36:23Z</time>
      </trkpt>
      <trkpt lat="59.966134" lon="17.7096835">
        <ele>21.767</ele>
        <time>2012-05-24T19:36:30Z</time>
      </trkpt>
      <trkpt lat="59.9663956" lon="17.7107155">
        <ele>21.767</ele>
        <time>2012-05-24T19:36:38Z</time>
      </trkpt>
      <trkpt lat="59.9666016" lon="17.7114189">
        <ele>24.651</ele>
        <time>2012-05-24T19:36:44Z</time>
      </trkpt>
      <trkpt lat="59.9669421" lon="17.7122742">
        <ele>25.6123</ele>
        <time>2012-05-24T19:36:52Z</time>
      </trkpt>
      <trkpt lat="59.9671824" lon="17.7129135">
        <ele>28.0155</ele>
        <time>2012-05-24T19:36:58Z</time>
      </trkpt>
      <trkpt lat="59.96732" lon="17.7136097">
        <ele>28.4962</ele>
        <time>2012-05-24T19:37:03Z</time>
      </trkpt>
      <trkpt lat="59.9674425" lon="17.7145892">
        <ele>24.651</ele>
        <time>2012-05-24T19:37:09Z</time>
      </trkpt>
      <trkpt lat="59.9675808" lon="17.7155881">
        <ele>21.2864</ele>
        <time>2012-05-24T19:37:15Z</time>
      </trkpt>
      <trkpt lat="59.9677876" lon="17.7163193">
        <ele>19.3638</ele>
        <time>2012-05-24T19:37:21Z</time>
      </trkpt>
      <trkpt lat="59.9681174" lon="17.7168357">
        <ele>22.7283</ele>
        <time>2012-05-24T19:37:28Z</time>
      </trkpt>
      <trkpt lat="59.9684697" lon="17.7171128">
        <ele>26.5736</ele>
        <time>2012-05-24T19:37:35Z</time>
      </trkpt>
      <trkpt lat="59.9687883" lon="17.7172356">
        <ele>27.5349</ele>
        <time>2012-05-24T19:37:41Z</time>
      </trkpt>
      <trkpt lat="59.9690854" lon="17.7173442">
        <ele>30.4188</ele>
        <time>2012-05-24T19:37:47Z</time>
      </trkpt>
      <trkpt lat="59.9694954" lon="17.7175088">
        <ele>29.9381</ele>
        <time>2012-05-24T19:37:54Z</time>
      </trkpt>
      <trkpt lat="59.9698912" lon="17.7178156">
        <ele>28.0155</ele>
        <time>2012-05-24T19:38:00Z</time>
      </trkpt>
      <trkpt lat="59.97044" lon="17.7183562">
        <ele>28.4962</ele>
        <time>2012-05-24T19:38:08Z</time>
      </trkpt>
      <trkpt lat="59.9710638" lon="17.7189402">
        <ele>27.5349</ele>
        <time>2012-05-24T19:38:17Z</time>
      </trkpt>
      <trkpt lat="59.9715311" lon="17.7193035">
        <ele>33.7834</ele>
        <time>2012-05-24T19:38:24Z</time>
      </trkpt>
      <trkpt lat="59.9721082" lon="17.719851">
        <ele>33.3029</ele>
        <time>2012-05-24T19:38:32Z</time>
      </trkpt>
      <trkpt lat="59.9726151" lon="17.7203676">
        <ele>31.8607</ele>
        <time>2012-05-24T19:38:39Z</time>
      </trkpt>
      <trkpt lat="59.9730183" lon="17.7208665">
        <ele>28.9769</ele>
        <time>2012-05-24T19:38:45Z</time>
      </trkpt>
      <trkpt lat="59.9733768" lon="17.7214901">
        <ele>26.5736</ele>
        <time>2012-05-24T19:38:51Z</time>
      </trkpt>
      <trkpt lat="59.9736818" lon="17.7222168">
        <ele>24.651</ele>
        <time>2012-05-24T19:38:57Z</time>
      </trkpt>
      <trkpt lat="59.9739552" lon="17.7231432">
        <ele>23.209</ele>
        <time>2012-05-24T19:39:04Z</time>
      </trkpt>
      <trkpt lat="59.9740896" lon="17.7239991">
        <ele>23.209</ele>
        <time>2012-05-24T19:39:10Z</time>
      </trkpt>
      <trkpt lat="59.9742631" lon="17.7251104">
        <ele>25.1317</ele>
        <time>2012-05-24T19:39:18Z</time>
      </trkpt>
      <trkpt lat="59.9743807" lon="17.7258022">
        <ele>30.4188</ele>
        <time>2012-05-24T19:39:23Z</time>
      </trkpt>
      <trkpt lat="59.974389" lon="17.7267965">
        <ele>28.9769</ele>
        <time>2012-05-24T19:39:30Z</time>
      </trkpt>
      <trkpt lat="59.9744128" lon="17.7279185">
        <ele>27.0543</ele>
        <time>2012-05-24T19:39:38Z</time>
      </trkpt>
      <trkpt lat="59.9744597" lon="17.7292583">
        <ele>28.0155</ele>
        <time>2012-05-24T19:39:47Z</time>
      </trkpt>
      <trkpt lat="59.9744625" lon="17.7295355">
        <ele>28.9769</ele>
        <time>2012-05-24T19:39:49Z</time>
      </trkpt>
      <trkpt lat="59.9743957" lon="17.7303837">
        <ele>28.0155</ele>
        <time>2012-05-24T19:39:56Z</time>
      </trkpt>
      <trkpt lat="59.974337" lon="17.7313335">
        <ele>26.0929</ele>
        <time>2012-05-24T19:40:04Z</time>
      </trkpt>
      <trkpt lat="59.9743201" lon="17.7322301">
        <ele>24.651</ele>
        <time>2012-05-24T19:40:11Z</time>
      </trkpt>
      <trkpt lat="59.9743371" lon="17.7332231">
        <ele>26.5736</ele>
        <time>2012-05-24T19:40:19Z</time>
      </trkpt>
      <trkpt lat="59.9742927" lon="17.7340692">
        <ele>26.5736</ele>
        <time>2012-05-24T19:40:26Z</time>
      </trkpt>
      <trkpt lat="59.9743012" lon="17.7349218">
        <ele>27.0543</ele>
        <time>2012-05-24T19:40:33Z</time>
      </trkpt>
      <trkpt lat="59.9743649" lon="17.7356529">
        <ele>27.0543</ele>
        <time>2012-05-24T19:40:39Z</time>
      </trkpt>
      <trkpt lat="59.9745611" lon="17.7365072">
        <ele>29.9381</ele>
        <time>2012-05-24T19:40:47Z</time>
      </trkpt>
      <trkpt lat="59.9748257" lon="17.7372748">
        <ele>30.4188</ele>
        <time>2012-05-24T19:40:55Z</time>
      </trkpt>
      <trkpt lat="59.9751499" lon="17.7379156">
        <ele>29.4575</ele>
        <time>2012-05-24T19:41:03Z</time>
      </trkpt>
      <trkpt lat="59.9754949" lon="17.7384828">
        <ele>28.9769</ele>
        <time>2012-05-24T19:41:11Z</time>
      </trkpt>
      <trkpt lat="59.9757927" lon="17.7389785">
        <ele>32.3416</ele>
        <time>2012-05-24T19:41:18Z</time>
      </trkpt>
      <trkpt lat="59.9761186" lon="17.7395479">
        <ele>32.8223</ele>
        <time>2012-05-24T19:41:26Z</time>
      </trkpt>
      <trkpt lat="59.9761853" lon="17.739634">
        <ele>33.3029</ele>
        <time>2012-05-24T19:41:28Z</time>
      </trkpt>
      <trkpt lat="59.9764196" lon="17.7396755">
        <ele>33.7834</ele>
        <time>2012-05-24T19:41:34Z</time>
      </trkpt>
      <trkpt lat="59.9767671" lon="17.7393617">
        <ele>30.4188</ele>
        <time>2012-05-24T19:41:42Z</time>
      </trkpt>
      <trkpt lat="59.9770418" lon="17.7392159">
        <ele>31.8607</ele>
        <time>2012-05-24T19:41:49Z</time>
      </trkpt>
      <trkpt lat="59.9773668" lon="17.7390342">
        <ele>28.0155</ele>
        <time>2012-05-24T19:41:57Z</time>
      </trkpt>
      <trkpt lat="59.9776197" lon="17.7389812">
        <ele>24.651</ele>
        <time>2012-05-24T19:42:04Z</time>
      </trkpt>
      <trkpt lat="59.977846" lon="17.7390346">
        <ele>22.7283</ele>
        <time>2012-05-24T19:42:11Z</time>
      </trkpt>
      <trkpt lat="59.9781192" lon="17.7391115">
        <ele>29.4575</ele>
        <time>2012-05-24T19:42:18Z</time>
      </trkpt>
      <trkpt lat="59.978458" lon="17.7391553">
        <ele>33.3029</ele>
        <time>2012-05-24T19:42:26Z</time>
      </trkpt>
      <trkpt lat="59.9787704" lon="17.7391755">
        <ele>34.2642</ele>
        <time>2012-05-24T19:42:32Z</time>
      </trkpt>
      <trkpt lat="59.9788727" lon="17.7392093">
        <ele>34.7449</ele>
        <time>2012-05-24T19:42:34Z</time>
      </trkpt>
    </trkseg>
  </trk>
</gpx>